SIA323 EHAM-WSSS

Flight info

Callsign SIA323
Flight time 11h 56m
Altitude 37000
Route ARNEM L620 HMM DCT NOMKA L620 OMELO DCT PEPIK DCT BUDOP/N0492F390 DCT LUGEB DCT UDROS UM859 KARDE UL851 TBN UM11 REBLO M11 MATAL T916 SUBUT T923 ERLEV M11 RODAR A909 BIBIM B450 MAMED B449 ZAMIR/N0491F410 B449 RANAH L750 ZB G202 HILAL/N0491F390 G202 RK/N0485F410 P628 IBANI L510 GIVAL P628 VPL Y503 RINBA Y507 MAKNA Y511 TOPOR A464 ARAMA DCT TEBUN TEBUN1A
Aircraft A359/H-SDE2E3GHIJ3J4J5LM1ORWXY/LB1D1

Departure

Time 2026-04-09 19:32
Airport Amsterdam Airport Schiphol (EHAM)

Arrival

Time 2026-04-10 07:29
Airport Singapore Changi Airport (WSSS)
Time Latitude Longitude Altitude Speed Heading
2026-04-09 19:04 52.31356 4.75572 13 ft 0 kts 86°
2026-04-09 19:19 52.31356 4.75569 13 ft 2 kts 86°
2026-04-09 19:19 52.31355 4.75538 13 ft 3 kts 86°
2026-04-09 19:20 52.31354 4.75508 13 ft 3 kts 72°
2026-04-09 19:20 52.31344 4.75479 17 ft 3 kts 30°
2026-04-09 19:20 52.31329 4.75470 16 ft 0 kts
2026-04-09 19:23 52.31351 4.75468 13 ft 13 kts 355°
2026-04-09 19:23 52.31398 4.75468 14 ft 6 kts 12°
2026-04-09 19:24 52.31426 4.75522 15 ft 8 kts 69°
2026-04-09 19:24 52.31437 4.75639 16 ft 13 kts 85°
2026-04-09 19:24 52.31443 4.75806 21 ft 15 kts 86°
2026-04-09 19:24 52.31449 4.75976 21 ft 15 kts 87°
2026-04-09 19:25 52.31455 4.76151 21 ft 16 kts 86°
2026-04-09 19:25 52.31461 4.76336 24 ft 16 kts 86°
2026-04-09 19:25 52.31467 4.76520 19 ft 17 kts 86°
2026-04-09 19:25 52.31475 4.76737 15 ft 21 kts 86°
2026-04-09 19:26 52.31484 4.76981 14 ft 22 kts 86°
2026-04-09 19:26 52.31458 4.77199 12 ft 17 kts 124°
2026-04-09 19:26 52.31379 4.77355 11 ft 19 kts 130°
2026-04-09 19:26 52.31307 4.77482 15 ft 12 kts 131°
2026-04-09 19:27 52.31284 4.77590 20 ft 10 kts 98°
2026-04-09 19:27 52.31282 4.77646 22 ft 0 kts 90°
2026-04-09 19:27 52.31282 4.77648 22 ft 1 kts 98°
2026-04-09 19:28 52.31270 4.77655 24 ft 3 kts 167°
2026-04-09 19:28 52.31198 4.77642 22 ft 15 kts 186°
2026-04-09 19:28 52.31093 4.77627 23 ft 16 kts 184°
2026-04-09 19:28 52.30979 4.77615 22 ft 17 kts 184°
2026-04-09 19:29 52.30855 4.77605 22 ft 18 kts 182°
2026-04-09 19:29 52.30728 4.77594 23 ft 18 kts 183°
2026-04-09 19:29 52.30631 4.77571 23 ft 13 kts 197°
2026-04-09 19:29 52.30545 4.77575 24 ft 12 kts 163°
2026-04-09 19:30 52.30468 4.77624 27 ft 10 kts 162°
2026-04-09 19:30 52.30402 4.77593 27 ft 11 kts 225°
2026-04-09 19:30 52.30386 4.77558 25 ft 0 kts 234°
2026-04-09 19:31 52.30355 4.77479 26 ft 26 kts 238°
2026-04-09 19:31 52.30139 4.76918 23 ft 88 kts 238°
2026-04-09 19:32 52.29717 4.75819 25 ft 139 kts 238°
2026-04-09 19:32 52.29151 4.74370 382 ft 155 kts 236°
2026-04-09 19:32 52.28485 4.72918 882 ft 165 kts 225°
2026-04-09 19:32 52.27431 4.72093 1399 ft 179 kts 193°
2026-04-09 19:33 52.26120 4.71845 1717 ft 201 kts 182°
2026-04-09 19:33 52.24742 4.72557 2080 ft 217 kts 154°
2026-04-09 19:33 52.23442 4.73878 2580 ft 222 kts 151°
2026-04-09 19:33 52.22148 4.75255 3146 ft 224 kts 151°
2026-04-09 19:34 52.20897 4.76819 3664 ft 231 kts 137°
2026-04-09 19:34 52.19936 4.78985 4118 ft 244 kts 126°
2026-04-09 19:34 52.19054 4.81448 4395 ft 259 kts 124°
2026-04-09 19:34 52.18141 4.84066 4805 ft 271 kts 123°
2026-04-09 19:35 52.17471 4.87019 4970 ft 286 kts 101°
2026-04-09 19:35 52.17660 4.90248 5000 ft 291 kts 76°
2026-04-09 19:35 52.18268 4.93399 4994 ft 292 kts 73°
2026-04-09 19:35 52.18901 4.96547 4983 ft 292 kts 73°
2026-04-09 19:36 52.19517 4.99688 4989 ft 292 kts 74°
2026-04-09 19:36 52.20124 5.02839 4989 ft 292 kts 74°
2026-04-09 19:36 52.20725 5.05998 4986 ft 292 kts 75°
2026-04-09 19:36 52.21324 5.09165 5003 ft 291 kts 75°
2026-04-09 19:37 52.21917 5.12318 5218 ft 294 kts 75°
2026-04-09 19:37 52.22519 5.15538 5737 ft 297 kts 75°
2026-04-09 19:37 52.23121 5.18758 6331 ft 299 kts 75°
2026-04-09 19:37 52.23732 5.22036 6848 ft 304 kts 75°
2026-04-09 19:38 52.24246 5.25395 7357 ft 307 kts 84°
2026-04-09 19:38 52.24285 5.28873 7886 ft 308 kts 97°
2026-04-09 19:38 52.24114 5.32376 8425 ft 311 kts 99°
2026-04-09 19:38 52.23923 5.35906 8971 ft 315 kts 99°
2026-04-09 19:39 52.23733 5.39486 9507 ft 319 kts 98°
2026-04-09 19:39 52.23543 5.43119 10029 ft 324 kts 98°
2026-04-09 19:39 52.23349 5.46816 10332 ft 336 kts 97°
2026-04-09 19:39 52.23091 5.50721 10578 ft 348 kts 103°
2026-04-09 19:40 52.22593 5.54634 10852 ft 359 kts 106°
2026-04-09 19:40 52.22005 5.58645 11107 ft 370 kts 107°
2026-04-09 19:40 52.21352 5.62787 11350 ft 381 kts 108°
2026-04-09 19:40 52.20901 5.65559 11523 ft 388 kts 108°
2026-04-09 19:41 52.19947 5.71350 11865 ft 401 kts 108°
2026-04-09 19:41 52.19220 5.75767 12272 ft 405 kts 108°
2026-04-09 19:41 52.18737 5.78704 12563 ft 407 kts 108°
2026-04-09 19:41 52.18006 5.83170 13010 ft 410 kts 108°
2026-04-09 19:42 52.17269 5.87674 13483 ft 412 kts 108°
2026-04-09 19:42 52.16526 5.92211 13897 ft 415 kts 107°
2026-04-09 19:42 52.15782 5.96743 14286 ft 417 kts 107°
2026-04-09 19:42 52.15026 6.01333 14669 ft 420 kts 107°
2026-04-09 19:43 52.14265 6.05947 15037 ft 423 kts 107°
2026-04-09 19:43 52.13497 6.10581 15423 ft 425 kts 107°
2026-04-09 19:43 52.12723 6.15239 15809 ft 428 kts 107°
2026-04-09 19:43 52.11945 6.19906 16181 ft 431 kts 107°
2026-04-09 19:44 52.11156 6.24632 16581 ft 433 kts 107°
2026-04-09 19:44 52.10361 6.29373 16965 ft 436 kts 107°
2026-04-09 19:44 52.09558 6.34153 17325 ft 439 kts 107°
2026-04-09 19:44 52.08751 6.38944 17705 ft 441 kts 107°
2026-04-09 19:45 52.07938 6.43756 18140 ft 442 kts 107°
2026-04-09 19:45 52.07122 6.48579 18520 ft 444 kts 107°
2026-04-09 19:45 52.06298 6.53432 18810 ft 447 kts 107°
2026-04-09 19:45 52.05468 6.58305 19130 ft 449 kts 107°
2026-04-09 19:46 52.04628 6.63223 19450 ft 452 kts 107°
2026-04-09 19:46 52.03784 6.68149 19758 ft 454 kts 107°
2026-04-09 19:46 52.02933 6.73104 20077 ft 456 kts 107°
2026-04-09 19:46 52.02080 6.78068 20403 ft 458 kts 106°
2026-04-09 19:47 52.01259 6.83065 20704 ft 460 kts 105°
2026-04-09 19:47 52.00468 6.88117 21010 ft 462 kts 104°
2026-04-09 19:47 51.99684 6.93197 21346 ft 464 kts 104°
2026-04-09 19:47 51.98897 6.98282 21628 ft 466 kts 104°
2026-04-09 19:48 51.98101 7.03382 21914 ft 469 kts 104°
2026-04-09 19:48 51.97295 7.08517 22204 ft 471 kts 104°
2026-04-09 19:48 51.96469 7.13662 22483 ft 473 kts 105°
2026-04-09 19:48 51.95565 7.18794 22772 ft 475 kts 107°
2026-04-09 19:49 51.94599 7.23931 23058 ft 478 kts 107°
2026-04-09 19:49 51.93608 7.29080 23343 ft 480 kts 108°
2026-04-09 19:49 51.92610 7.34264 23619 ft 482 kts 107°
2026-04-09 19:49 51.91618 7.39456 24004 ft 480 kts 107°
2026-04-09 19:50 51.90640 7.44616 24324 ft 481 kts 107°
2026-04-09 19:50 51.89661 7.49799 24536 ft 483 kts 107°
2026-04-09 19:50 51.88682 7.54996 24816 ft 484 kts 107°
2026-04-09 19:50 51.87697 7.60224 25075 ft 485 kts 107°
2026-04-09 19:51 51.86710 7.65446 25336 ft 487 kts 107°
2026-04-09 19:51 51.85715 7.70697 25594 ft 488 kts 107°
2026-04-09 19:51 51.84791 7.75962 25848 ft 489 kts 103°
2026-04-09 19:51 51.84037 7.81336 26125 ft 490 kts 101°
2026-04-09 19:52 51.83354 7.86828 26412 ft 491 kts 100°
2026-04-09 19:52 51.82696 7.92254 26676 ft 493 kts 100°
2026-04-09 19:52 51.82028 7.97631 26926 ft 495 kts 101°
2026-04-09 19:52 51.81316 8.03159 27200 ft 497 kts 101°
2026-04-09 19:53 51.80592 8.08603 27471 ft 498 kts 101°
2026-04-09 19:53 51.79848 8.14084 27733 ft 500 kts 102°
2026-04-09 19:53 51.79090 8.19589 28014 ft 502 kts 102°
2026-04-09 19:53 51.78329 8.25083 28268 ft 503 kts 102°
2026-04-09 19:54 51.77558 8.30621 28557 ft 505 kts 101°
2026-04-09 19:54 51.76788 8.36129 28820 ft 506 kts 101°
2026-04-09 19:54 51.76010 8.41691 29102 ft 508 kts 101°
2026-04-09 19:54 51.75238 8.47196 29367 ft 510 kts 102°
2026-04-09 19:55 51.74444 8.52843 29591 ft 511 kts 102°
2026-04-09 19:55 51.73650 8.58465 29855 ft 513 kts 102°
2026-04-09 19:55 51.72856 8.64064 30104 ft 515 kts 102°
2026-04-09 19:55 51.72053 8.69714 30284 ft 517 kts 102°
2026-04-09 19:56 51.71246 8.75364 30521 ft 519 kts 101°
2026-04-09 19:56 51.70438 8.80997 30755 ft 519 kts 101°
2026-04-09 19:56 51.69616 8.86709 31064 ft 518 kts 101°
2026-04-09 19:56 51.68801 8.92349 31389 ft 518 kts 101°
2026-04-09 19:57 51.67980 8.98011 31705 ft 517 kts 101°
2026-04-09 19:57 51.67160 9.03646 32010 ft 517 kts 101°
2026-04-09 19:57 51.66339 9.09272 32308 ft 516 kts 101°
2026-04-09 19:57 51.65516 9.14885 32608 ft 516 kts 101°
2026-04-09 19:58 51.63862 9.26113 33211 ft 514 kts 102°
2026-04-09 19:58 51.63034 9.31704 33516 ft 514 kts 102°
2026-04-09 19:58 51.62201 9.37302 33816 ft 513 kts 102°
2026-04-09 19:59 51.61368 9.42886 34075 ft 513 kts 102°
2026-04-09 19:59 51.60535 9.48451 34326 ft 512 kts 102°
2026-04-09 19:59 51.59700 9.54010 34537 ft 513 kts 102°
2026-04-09 19:59 51.58857 9.59601 34755 ft 513 kts 102°
2026-04-09 20:00 51.58014 9.65176 34972 ft 513 kts 102°
2026-04-09 20:00 51.57177 9.70681 35188 ft 514 kts 101°
2026-04-09 20:00 51.56320 9.76310 35385 ft 515 kts 101°
2026-04-09 20:00 51.55473 9.81849 35615 ft 514 kts 101°
2026-04-09 20:01 51.54619 9.87413 35851 ft 514 kts 101°
2026-04-09 20:01 51.53754 9.93033 36081 ft 514 kts 101°
2026-04-09 20:01 51.52891 9.98620 36306 ft 514 kts 101°
2026-04-09 20:01 51.52028 10.04188 36490 ft 514 kts 101°
2026-04-09 20:02 51.51161 10.09757 36689 ft 514 kts 101°
2026-04-09 20:02 51.50305 10.15238 36891 ft 513 kts 101°
2026-04-09 20:02 51.49425 10.20859 37085 ft 514 kts 101°
2026-04-09 20:02 51.48548 10.26445 37122 ft 517 kts 101°
2026-04-09 20:03 51.46794 10.37555 37124 ft 517 kts 101°
2026-04-09 20:03 51.45019 10.48715 37126 ft 517 kts 101°
2026-04-09 20:04 51.43245 10.59886 37132 ft 517 kts 101°
2026-04-09 20:04 51.41482 10.71051 37131 ft 517 kts 100°
2026-04-09 20:05 51.39704 10.82228 37134 ft 517 kts 100°
2026-04-09 20:05 51.37920 10.93350 37131 ft 517 kts 101°
2026-04-09 20:06 51.36118 11.04508 37138 ft 517 kts 101°
2026-04-09 20:06 51.34297 11.15647 37143 ft 517 kts 100°
2026-04-09 20:07 51.32464 11.26793 37140 ft 517 kts 100°
2026-04-09 20:07 51.30640 11.37905 37146 ft 517 kts 100°
2026-04-09 20:08 51.28808 11.49012 37131 ft 517 kts 100°
2026-04-09 20:08 51.26922 11.60191 37153 ft 517 kts 100°
2026-04-09 20:09 51.25042 11.71278 37159 ft 517 kts 100°
2026-04-09 20:09 51.23160 11.82356 37159 ft 517 kts 100°
2026-04-09 20:10 51.21286 11.93340 37164 ft 517 kts 100°
2026-04-09 20:10 51.19392 12.04424 37165 ft 516 kts 99°
2026-04-09 20:11 51.17494 12.15443 37151 ft 515 kts 99°
2026-04-09 20:11 51.15587 12.26476 37163 ft 516 kts 99°
2026-04-09 20:12 51.13656 12.37474 37163 ft 517 kts 100°
2026-04-09 20:12 51.11697 12.48471 37162 ft 516 kts 99°
2026-04-09 20:13 51.09733 12.59451 37158 ft 516 kts 100°
2026-04-09 20:13 51.07770 12.70416 37160 ft 516 kts 100°
2026-04-09 20:14 51.05784 12.81396 37161 ft 516 kts 100°
2026-04-09 20:14 51.03794 12.92316 37167 ft 516 kts 100°
2026-04-09 20:15 51.01788 13.03278 37169 ft 516 kts 100°
2026-04-09 20:15 50.99774 13.14228 37170 ft 516 kts 100°
2026-04-09 20:16 50.97749 13.25170 37171 ft 517 kts 100°
2026-04-09 20:16 50.95721 13.36087 37173 ft 516 kts 100°
2026-04-09 20:17 50.93762 13.47038 37174 ft 516 kts 99°
2026-04-09 20:17 50.91788 13.58010 37175 ft 516 kts 100°
2026-04-09 20:18 50.89743 13.68879 37175 ft 517 kts 101°
2026-04-09 20:18 50.87675 13.79776 37174 ft 517 kts 101°
2026-04-09 20:19 50.85596 13.90666 37178 ft 517 kts 101°
2026-04-09 20:19 50.82560 14.01094 37177 ft 531 kts 120°
2026-04-09 20:20 50.77701 14.10004 37173 ft 538 kts 130°
2026-04-09 20:20 50.72411 14.18370 37193 ft 539 kts 132°
2026-04-09 20:21 50.67975 14.25259 37166 ft 538 kts 132°
2026-04-09 20:21 50.61757 14.34973 37170 ft 539 kts 131°
2026-04-09 20:22 50.57344 14.41897 37168 ft 539 kts 131°
2026-04-09 20:22 50.52009 14.50256 37163 ft 539 kts 131°
2026-04-09 20:23 50.46688 14.58564 37168 ft 537 kts 132°
2026-04-09 20:23 50.41394 14.66798 37165 ft 536 kts 132°
2026-04-09 20:24 50.36101 14.75004 37164 ft 536 kts 132°
2026-04-09 20:24 50.30782 14.83222 37169 ft 537 kts 132°
2026-04-09 20:25 50.25469 14.91403 37161 ft 537 kts 132°
2026-04-09 20:25 50.20142 14.99580 37166 ft 537 kts 132°
2026-04-09 20:26 50.14802 15.07749 37167 ft 537 kts 132°
2026-04-09 20:26 50.09472 15.15875 37167 ft 537 kts 132°
2026-04-09 20:27 50.04122 15.24006 37206 ft 537 kts 132°
2026-04-09 20:27 49.98773 15.32106 37172 ft 537 kts 132°
2026-04-09 20:28 49.93417 15.40194 37172 ft 537 kts 132°
2026-04-09 20:28 49.88016 15.48321 37163 ft 537 kts 132°
2026-04-09 20:29 49.82683 15.56320 37160 ft 537 kts 133°
2026-04-09 20:29 49.77307 15.64357 37161 ft 537 kts 132°
2026-04-09 20:30 49.71927 15.72374 37165 ft 538 kts 133°
2026-04-09 20:30 49.66531 15.80390 37160 ft 538 kts 133°
2026-04-09 20:31 49.61100 15.88430 37162 ft 538 kts 133°
2026-04-09 20:31 49.55727 15.96358 37155 ft 537 kts 133°
2026-04-09 20:32 49.50304 16.04335 37160 ft 536 kts 133°
2026-04-09 20:32 49.44925 16.12222 37160 ft 536 kts 133°
2026-04-09 20:33 49.39534 16.20102 37161 ft 536 kts 133°
2026-04-09 20:33 49.34098 16.28022 37162 ft 536 kts 133°
2026-04-09 20:34 49.28669 16.35905 37161 ft 535 kts 133°
2026-04-09 20:34 49.23309 16.43665 37156 ft 535 kts 133°
2026-04-09 20:35 49.17860 16.51530 37157 ft 536 kts 133°
2026-04-09 20:35 49.12458 16.59302 37170 ft 537 kts 133°
2026-04-09 20:36 49.07012 16.67112 37156 ft 538 kts 133°
2026-04-09 20:36 49.01546 16.74924 37158 ft 538 kts 133°
2026-04-09 20:37 48.96043 16.82767 37174 ft 538 kts 133°
2026-04-09 20:37 48.90575 16.90534 37196 ft 538 kts 133°
2026-04-09 20:38 48.85133 16.98241 37156 ft 540 kts 134°
2026-04-09 20:38 48.79654 17.06064 37160 ft 539 kts 130°
2026-04-09 20:39 48.75126 17.14984 37158 ft 532 kts 120°
2026-04-09 20:39 48.71021 17.24298 37156 ft 531 kts 118°
2026-04-09 20:40 48.66933 17.33705 37156 ft 531 kts 118°
2026-04-09 20:40 48.62852 17.42998 37152 ft 531 kts 119°
2026-04-09 20:41 48.58764 17.52224 37151 ft 531 kts 119°
2026-04-09 20:41 48.54644 17.61481 37165 ft 531 kts 119°
2026-04-09 20:42 48.50506 17.70751 37163 ft 533 kts 119°
2026-04-09 20:42 48.46351 17.80027 37149 ft 534 kts 119°
2026-04-09 20:43 48.42191 17.89281 37149 ft 534 kts 120°
2026-04-09 20:43 48.37996 17.98584 37155 ft 535 kts 120°
2026-04-09 20:44 48.33796 18.07866 37143 ft 537 kts 120°
2026-04-09 20:44 48.29615 18.17074 37143 ft 537 kts 120°
2026-04-09 20:45 48.25368 18.26392 37143 ft 537 kts 120°
2026-04-09 20:45 48.21175 18.35561 37138 ft 537 kts 120°
2026-04-09 20:46 48.16945 18.44783 37138 ft 537 kts 120°
2026-04-09 20:46 48.12701 18.54003 37138 ft 538 kts 120°
2026-04-09 20:47 48.08449 18.63209 37172 ft 538 kts 120°
2026-04-09 20:47 48.04196 18.72386 37138 ft 538 kts 120°
2026-04-09 20:48 47.99920 18.81580 37137 ft 538 kts 120°
2026-04-09 20:48 47.95649 18.90735 37137 ft 538 kts 120°
2026-04-09 20:49 47.91365 18.99887 37138 ft 538 kts 121°
2026-04-09 20:49 47.87067 19.09037 37134 ft 538 kts 121°
2026-04-09 20:50 47.82770 19.18155 37135 ft 539 kts 121°
2026-04-09 20:50 47.78459 19.27272 37131 ft 539 kts 121°
2026-04-09 20:51 47.74140 19.36374 37128 ft 539 kts 121°
2026-04-09 20:51 47.69803 19.45483 37130 ft 540 kts 121°
2026-04-09 20:52 47.65460 19.54578 37129 ft 540 kts 121°
2026-04-09 20:52 47.61118 19.63640 37165 ft 540 kts 121°
2026-04-09 20:53 47.56764 19.72695 37123 ft 540 kts 121°
2026-04-09 20:53 47.52402 19.81740 37121 ft 540 kts 121°
2026-04-09 20:54 47.48026 19.90782 37126 ft 540 kts 122°
2026-04-09 20:54 47.43639 19.99817 37133 ft 540 kts 122°
2026-04-09 20:55 47.39260 20.08804 37126 ft 539 kts 122°
2026-04-09 20:55 47.34872 20.17784 37123 ft 539 kts 122°
2026-04-09 20:56 47.30483 20.26736 37126 ft 539 kts 122°
2026-04-09 20:56 47.26080 20.35688 37115 ft 538 kts 122°
2026-04-09 20:57 47.21682 20.44597 37117 ft 539 kts 122°
2026-04-09 20:57 47.17264 20.53521 37127 ft 540 kts 122°
2026-04-09 20:58 47.12844 20.62421 37124 ft 540 kts 122°
2026-04-09 20:58 47.08399 20.71340 37120 ft 540 kts 122°
2026-04-09 20:59 47.03989 20.80160 37119 ft 540 kts 123°
2026-04-09 20:59 46.99541 20.89030 37119 ft 540 kts 123°
2026-04-09 21:00 46.95083 20.97893 37116 ft 540 kts 123°
2026-04-09 21:01 46.88387 21.11149 37113 ft 541 kts 123°
2026-04-09 21:01 46.83906 21.19984 37113 ft 540 kts 123°
2026-04-09 21:02 46.79428 21.28786 37116 ft 540 kts 123°
2026-04-09 21:02 46.75698 21.36095 37110 ft 541 kts 123°
2026-04-09 21:03 46.71202 21.44882 37110 ft 541 kts 124°
2026-04-09 21:03 46.67136 21.54028 37107 ft 537 kts 115°
2026-04-09 21:04 46.63551 21.63550 37108 ft 535 kts 115°
2026-04-09 21:04 46.60027 21.73062 37112 ft 534 kts 115°
2026-04-09 21:05 46.56497 21.82538 37117 ft 534 kts 115°
2026-04-09 21:05 46.52947 21.92005 37133 ft 534 kts 115°
2026-04-09 21:06 46.49385 22.01450 37119 ft 534 kts 115°
2026-04-09 21:06 46.45798 22.10934 37312 ft 536 kts 115°
2026-04-09 21:06 46.44003 22.15665 37546 ft 535 kts 116°
2026-04-09 21:07 46.42210 22.20382 37766 ft 534 kts 116°
2026-04-09 21:07 46.40418 22.25091 38027 ft 532 kts 116°
2026-04-09 21:07 46.38640 22.29754 38372 ft 528 kts 116°
2026-04-09 21:07 46.36862 22.34408 38557 ft 528 kts 116°
2026-04-09 21:08 46.35080 22.39068 38683 ft 528 kts 116°
2026-04-09 21:08 46.33308 22.43694 38820 ft 528 kts 116°
2026-04-09 21:08 46.31525 22.48341 38919 ft 528 kts 116°
2026-04-09 21:08 46.29739 22.52986 39039 ft 528 kts 116°
2026-04-09 21:09 46.27958 22.57612 39113 ft 528 kts 117°
2026-04-09 21:09 46.24373 22.66898 39125 ft 528 kts 117°
2026-04-09 21:10 46.20789 22.76146 39144 ft 528 kts 117°
2026-04-09 21:10 46.17192 22.85400 39129 ft 528 kts 117°
2026-04-09 21:11 46.13597 22.94616 39138 ft 529 kts 117°
2026-04-09 21:11 46.09971 23.03881 39133 ft 531 kts 117°
2026-04-09 21:12 46.06334 23.13144 39133 ft 531 kts 117°
2026-04-09 21:12 46.02696 23.22377 39145 ft 531 kts 117°
2026-04-09 21:13 45.99043 23.31617 39132 ft 531 kts 117°
2026-04-09 21:13 45.95403 23.40792 39133 ft 532 kts 117°
2026-04-09 21:14 45.91711 23.50067 39135 ft 532 kts 117°
2026-04-09 21:14 45.88054 23.59226 39138 ft 532 kts 118°
2026-04-09 21:15 45.84358 23.68449 39130 ft 533 kts 118°
2026-04-09 21:15 45.80662 23.77644 39119 ft 533 kts 118°
2026-04-09 21:16 45.76956 23.86831 39110 ft 533 kts 118°
2026-04-09 21:16 45.73242 23.96008 39104 ft 532 kts 118°
2026-04-09 21:17 45.69524 24.05167 39143 ft 532 kts 118°
2026-04-09 21:17 45.65793 24.14324 39142 ft 532 kts 118°
2026-04-09 21:18 45.62073 24.23427 39145 ft 531 kts 118°
2026-04-09 21:18 45.58335 24.32542 39145 ft 530 kts 118°
2026-04-09 21:19 45.54607 24.41604 39121 ft 530 kts 118°
2026-04-09 21:19 45.50860 24.50685 39142 ft 532 kts 118°
2026-04-09 21:20 45.47099 24.59768 39137 ft 533 kts 118°
2026-04-09 21:20 45.43327 24.68847 39131 ft 533 kts 119°
2026-04-09 21:21 45.39551 24.77906 39147 ft 533 kts 119°
2026-04-09 21:21 45.35762 24.86968 39132 ft 532 kts 119°
2026-04-09 21:22 45.31967 24.96016 39126 ft 532 kts 119°
2026-04-09 21:22 45.28166 25.05047 39127 ft 532 kts 119°
2026-04-09 21:23 45.24365 25.14053 39129 ft 532 kts 119°
2026-04-09 21:23 45.20587 25.22973 39123 ft 531 kts 119°
2026-04-09 21:24 45.16777 25.31938 39115 ft 531 kts 120°
2026-04-09 21:24 45.12957 25.40903 39121 ft 531 kts 120°
2026-04-09 21:25 45.09134 25.49843 39120 ft 531 kts 120°
2026-04-09 21:25 45.05301 25.58779 39117 ft 532 kts 120°
2026-04-09 21:26 45.01451 25.67728 39112 ft 533 kts 120°
2026-04-09 21:26 44.97594 25.76663 39117 ft 533 kts 120°
2026-04-09 21:27 44.93727 25.85594 39111 ft 533 kts 120°
2026-04-09 21:27 44.89861 25.94495 39111 ft 533 kts 120°
2026-04-09 21:28 44.85980 26.03400 39111 ft 532 kts 120°
2026-04-09 21:28 44.82104 26.12269 39108 ft 531 kts 120°
2026-04-09 21:29 44.78219 26.21129 39106 ft 531 kts 120°
2026-04-09 21:29 44.74333 26.29966 39120 ft 531 kts 120°
2026-04-09 21:30 44.70442 26.38786 39111 ft 530 kts 121°
2026-04-09 21:30 44.66551 26.47578 39111 ft 530 kts 121°
2026-04-09 21:31 44.62652 26.56362 39111 ft 530 kts 121°
2026-04-09 21:31 44.58748 26.65130 39092 ft 529 kts 121°
2026-04-09 21:32 44.54836 26.73890 39112 ft 530 kts 121°
2026-04-09 21:32 44.50911 26.82650 39108 ft 531 kts 121°
2026-04-09 21:33 44.46974 26.91412 39107 ft 531 kts 121°
2026-04-09 21:33 44.43034 27.00153 39108 ft 531 kts 121°
2026-04-09 21:34 44.39088 27.08880 39104 ft 531 kts 121°
2026-04-09 21:34 44.35133 27.17602 39107 ft 531 kts 121°
2026-04-09 21:35 44.31183 27.26285 39104 ft 529 kts 121°
2026-04-09 21:35 44.27233 27.34943 39101 ft 529 kts 121°
2026-04-09 21:36 44.23274 27.43597 39100 ft 529 kts 121°
2026-04-09 21:36 44.19312 27.52230 39100 ft 528 kts 122°
2026-04-09 21:37 44.15350 27.60835 39099 ft 528 kts 122°
2026-04-09 21:37 44.11380 27.69434 39096 ft 528 kts 122°
2026-04-09 21:38 44.07395 27.78041 39093 ft 529 kts 122°
2026-04-09 21:38 44.03408 27.86624 39093 ft 529 kts 122°
2026-04-09 21:39 43.99411 27.95206 39093 ft 529 kts 122°
2026-04-09 21:39 43.95413 28.03762 39094 ft 528 kts 122°
2026-04-09 21:40 43.91406 28.12314 39092 ft 528 kts 122°
2026-04-09 21:40 43.87426 28.20783 39086 ft 528 kts 123°
2026-04-09 21:41 43.83385 28.29356 39091 ft 528 kts 123°
2026-04-09 21:41 43.79367 28.37858 39086 ft 527 kts 123°
2026-04-09 21:42 43.75343 28.46345 39087 ft 527 kts 123°
2026-04-09 21:42 43.71358 28.54773 39086 ft 527 kts 122°
2026-04-09 21:43 43.67427 28.63338 39091 ft 527 kts 122°
2026-04-09 21:43 43.63484 28.71946 39092 ft 527 kts 122°
2026-04-09 21:44 43.59570 28.80424 39088 ft 528 kts 122°
2026-04-09 21:44 43.55612 28.88948 39090 ft 528 kts 123°
2026-04-09 21:45 43.51643 28.97466 39091 ft 528 kts 123°
2026-04-09 21:45 43.47665 29.05981 39082 ft 528 kts 123°
2026-04-09 21:46 43.43692 29.14460 39083 ft 528 kts 123°
2026-04-09 21:46 43.39707 29.22941 39083 ft 528 kts 123°
2026-04-09 21:47 43.35717 29.31410 39084 ft 528 kts 123°
2026-04-09 21:47 43.31714 29.39881 39081 ft 528 kts 123°
2026-04-09 21:48 43.28389 29.46897 39084 ft 528 kts 123°
2026-04-09 21:48 43.24379 29.55338 39080 ft 528 kts 123°
2026-04-09 21:49 43.20362 29.63770 39074 ft 528 kts 123°
2026-04-09 21:49 43.16341 29.72185 39072 ft 528 kts 124°
2026-04-09 21:50 43.12314 29.80589 39075 ft 528 kts 124°
2026-04-09 21:50 43.08276 29.88993 39074 ft 528 kts 124°
2026-04-09 21:51 43.04232 29.97385 39072 ft 528 kts 124°
2026-04-09 21:51 43.00185 30.05760 39073 ft 528 kts 124°
2026-04-09 21:52 42.96156 30.14073 39073 ft 528 kts 124°
2026-04-09 21:52 42.92100 30.22421 39072 ft 528 kts 124°
2026-04-09 21:53 42.88040 30.30751 39072 ft 528 kts 124°
2026-04-09 21:53 42.83964 30.39092 39073 ft 528 kts 124°
2026-04-09 21:54 42.79889 30.47406 39071 ft 528 kts 124°
2026-04-09 21:54 42.75887 30.55769 39070 ft 528 kts 119°
2026-04-09 21:55 42.73382 30.65120 39073 ft 527 kts 99°
2026-04-09 21:55 42.72250 30.74975 39067 ft 528 kts 97°
2026-04-09 21:56 42.71291 30.84861 39067 ft 528 kts 97°
2026-04-09 21:56 42.70319 30.94703 39067 ft 528 kts 97°
2026-04-09 21:57 42.69304 31.04593 39079 ft 528 kts 97°
2026-04-09 21:57 42.68264 31.14523 39066 ft 528 kts 98°
2026-04-09 21:58 42.67227 31.24338 39074 ft 527 kts 98°
2026-04-09 21:58 42.66176 31.34204 39070 ft 527 kts 98°
2026-04-09 21:59 42.65120 31.44056 39063 ft 528 kts 98°
2026-04-09 21:59 42.64053 31.53921 39065 ft 527 kts 98°
2026-04-09 22:00 42.62980 31.63761 39063 ft 527 kts 98°
2026-04-09 22:00 42.61896 31.73619 39064 ft 527 kts 98°
2026-04-09 22:01 42.60805 31.83455 39063 ft 527 kts 99°
2026-04-09 22:01 42.59708 31.93282 39058 ft 527 kts 99°
2026-04-09 22:02 42.58599 32.03130 39059 ft 527 kts 99°
2026-04-09 22:02 42.57508 32.12964 39064 ft 527 kts 99°
2026-04-09 22:03 42.56382 32.22793 39058 ft 527 kts 99°
2026-04-09 22:03 42.55240 32.32631 39054 ft 528 kts 99°
2026-04-09 22:04 42.54094 32.42473 39055 ft 528 kts 99°
2026-04-09 22:04 42.52940 32.52323 39063 ft 529 kts 99°
2026-04-09 22:05 42.51779 32.62164 39059 ft 529 kts 99°
2026-04-09 22:05 42.50018 32.76947 39057 ft 529 kts 100°
2026-04-09 22:06 42.48835 32.86779 39056 ft 529 kts 100°
2026-04-09 22:06 42.47643 32.96618 39051 ft 529 kts 100°
2026-04-09 22:07 42.46444 33.06442 39066 ft 529 kts 100°
2026-04-09 22:07 42.45239 33.16268 39060 ft 529 kts 100°
2026-04-09 22:08 42.44023 33.26101 39064 ft 529 kts 100°
2026-04-09 22:08 42.42793 33.35909 39065 ft 529 kts 100°
2026-04-09 22:09 42.41564 33.45683 39061 ft 529 kts 100°
2026-04-09 22:09 42.40322 33.55500 39073 ft 529 kts 101°
2026-04-09 22:10 42.39059 33.65376 39062 ft 529 kts 101°
2026-04-09 22:10 42.37798 33.75186 39068 ft 530 kts 101°
2026-04-09 22:11 42.36530 33.84989 39063 ft 530 kts 101°
2026-04-09 22:11 42.35258 33.94802 39068 ft 529 kts 101°
2026-04-09 22:12 42.33979 34.04595 39062 ft 529 kts 101°
2026-04-09 22:12 42.32685 34.14408 39066 ft 529 kts 101°
2026-04-09 22:13 42.31388 34.24190 39065 ft 529 kts 101°
2026-04-09 22:13 42.30082 34.33980 39066 ft 529 kts 101°
2026-04-09 22:14 42.28769 34.43769 39062 ft 530 kts 102°
2026-04-09 22:14 42.27453 34.53491 39060 ft 530 kts 102°
2026-04-09 22:15 42.26115 34.63301 39064 ft 531 kts 102°
2026-04-09 22:15 42.24772 34.73082 39059 ft 531 kts 102°
2026-04-09 22:16 42.23421 34.82874 39061 ft 531 kts 102°
2026-04-09 22:16 42.22058 34.92656 39062 ft 531 kts 102°
2026-04-09 22:17 42.20684 35.02441 39067 ft 531 kts 102°
2026-04-09 22:17 42.19304 35.12208 39063 ft 531 kts 102°
2026-04-09 22:18 42.17912 35.22000 39064 ft 531 kts 103°
2026-04-09 22:18 42.16516 35.31758 39062 ft 531 kts 103°
2026-04-09 22:19 42.15111 35.41527 39049 ft 531 kts 103°
2026-04-09 22:19 42.13699 35.51298 39065 ft 531 kts 103°
2026-04-09 22:20 42.12281 35.61049 39061 ft 531 kts 103°
2026-04-09 22:20 42.10856 35.70795 39065 ft 531 kts 103°
2026-04-09 22:21 42.09422 35.80540 39060 ft 531 kts 103°
2026-04-09 22:21 42.07977 35.90296 39064 ft 531 kts 103°
2026-04-09 22:22 42.06524 36.00043 39064 ft 531 kts 103°
2026-04-09 22:22 42.05066 36.09766 39066 ft 531 kts 103°
2026-04-09 22:23 42.03597 36.19503 39064 ft 531 kts 103°
2026-04-09 22:23 42.02122 36.29226 39063 ft 531 kts 103°
2026-04-09 22:24 42.00637 36.38954 39063 ft 531 kts 104°
2026-04-09 22:24 41.99144 36.48673 39065 ft 531 kts 104°
2026-04-09 22:25 41.97643 36.58388 39062 ft 530 kts 104°
2026-04-09 22:25 41.96136 36.68085 39062 ft 530 kts 104°
2026-04-09 22:26 41.94620 36.77777 39058 ft 530 kts 104°
2026-04-09 22:26 41.93097 36.87467 39058 ft 529 kts 104°
2026-04-09 22:27 41.91579 36.97062 39060 ft 529 kts 104°
2026-04-09 22:27 41.89704 37.06568 39083 ft 524 kts 115°
2026-04-09 22:28 41.86965 37.15633 39058 ft 524 kts 116°
2026-04-09 22:28 41.84111 37.24619 39056 ft 524 kts 116°
2026-04-09 22:29 41.81244 37.33606 39057 ft 524 kts 116°
2026-04-09 22:29 41.78389 37.42585 39039 ft 524 kts 116°
2026-04-09 22:30 41.75541 37.51542 39055 ft 522 kts 116°
2026-04-09 22:30 41.72689 37.60483 39053 ft 522 kts 116°
2026-04-09 22:31 41.69834 37.69409 39050 ft 522 kts 116°
2026-04-09 22:31 41.66974 37.78326 39049 ft 521 kts 117°
2026-04-09 22:32 41.64115 37.87198 39051 ft 520 kts 117°
2026-04-09 22:32 41.61248 37.96068 39050 ft 520 kts 117°
2026-04-09 22:33 41.58372 38.04941 39043 ft 519 kts 117°
2026-04-09 22:33 41.55503 38.13764 39039 ft 518 kts 117°
2026-04-09 22:34 41.53110 38.21102 39039 ft 518 kts 117°
2026-04-09 22:34 41.50228 38.29912 39028 ft 518 kts 117°
2026-04-09 22:35 41.47344 38.38702 39037 ft 517 kts 117°
2026-04-09 22:35 41.44458 38.47469 39039 ft 516 kts 118°
2026-04-09 22:36 41.41569 38.56216 39022 ft 515 kts 118°
2026-04-09 22:36 41.38677 38.64947 39036 ft 515 kts 118°
2026-04-09 22:37 41.35776 38.73672 39037 ft 515 kts 118°
2026-04-09 22:37 41.32875 38.82397 39036 ft 516 kts 118°
2026-04-09 22:38 41.30014 38.91149 39034 ft 516 kts 118°
2026-04-09 22:38 41.27150 38.99916 39036 ft 517 kts 118°
2026-04-09 22:39 41.24279 39.08661 39040 ft 517 kts 118°
2026-04-09 22:39 41.21392 39.17412 39036 ft 518 kts 119°
2026-04-09 22:40 41.18418 39.26112 39040 ft 518 kts 120°
2026-04-09 22:40 41.15351 39.34779 39041 ft 518 kts 120°
2026-04-09 22:41 41.12298 39.43420 39043 ft 518 kts 120°
2026-04-09 22:41 41.09251 39.52072 39050 ft 518 kts 120°
2026-04-09 22:42 41.06208 39.60706 39045 ft 518 kts 120°
2026-04-09 22:42 41.03154 39.69345 39054 ft 518 kts 120°
2026-04-09 22:43 41.00288 39.78107 39055 ft 523 kts 111°
2026-04-09 22:43 40.99551 39.82839 39051 ft 529 kts 99°
2026-04-09 22:43 40.99279 39.87698 39051 ft 531 kts 96°
2026-04-09 22:44 40.99024 39.97475 39038 ft 533 kts 95°
2026-04-09 22:44 40.98842 40.07289 39051 ft 533 kts 95°
2026-04-09 22:45 40.98621 40.17102 39053 ft 534 kts 96°
2026-04-09 22:45 40.98371 40.26931 39048 ft 534 kts 96°
2026-04-09 22:46 40.98096 40.36762 39044 ft 534 kts 96°
2026-04-09 22:46 40.97811 40.46583 39025 ft 534 kts 96°
2026-04-09 22:47 40.97522 40.56381 39037 ft 533 kts 96°
2026-04-09 22:47 40.97228 40.66115 39029 ft 533 kts 96°
2026-04-09 22:48 40.96924 40.75898 39028 ft 532 kts 96°
2026-04-09 22:48 40.96613 40.85687 38998 ft 532 kts 96°
2026-04-09 22:49 40.96297 40.95471 39002 ft 533 kts 96°
2026-04-09 22:49 40.95967 41.05291 39003 ft 533 kts 97°
2026-04-09 22:50 40.95629 41.15073 38986 ft 533 kts 97°
2026-04-09 22:50 40.95279 41.24878 38984 ft 533 kts 97°
2026-04-09 22:51 40.94926 41.34685 38969 ft 534 kts 96°
2026-04-09 22:51 40.94564 41.44513 38975 ft 535 kts 97°
2026-04-09 22:52 40.94192 41.54344 38975 ft 535 kts 97°
2026-04-09 22:52 40.93813 41.64171 38965 ft 535 kts 97°
2026-04-09 22:53 40.93425 41.74000 38964 ft 535 kts 97°
2026-04-09 22:53 40.93028 41.83813 38956 ft 534 kts 97°
2026-04-09 22:54 40.92623 41.93614 38940 ft 534 kts 97°
2026-04-09 22:54 40.92210 42.03434 38940 ft 535 kts 97°
2026-04-09 22:55 40.91788 42.13248 38933 ft 535 kts 97°
2026-04-09 22:55 40.91359 42.23057 38936 ft 535 kts 97°
2026-04-09 22:56 40.90920 42.32892 38945 ft 535 kts 97°
2026-04-09 22:56 40.90473 42.42712 38937 ft 535 kts 97°
2026-04-09 22:57 40.90018 42.52520 38924 ft 535 kts 98°
2026-04-09 22:57 40.89556 42.62319 38953 ft 533 kts 98°
2026-04-09 22:58 40.89087 42.72077 38951 ft 532 kts 98°
2026-04-09 22:58 40.88609 42.81849 38957 ft 532 kts 98°
2026-04-09 22:59 40.88125 42.91577 38961 ft 532 kts 98°
2026-04-09 22:59 40.87632 43.01323 38966 ft 530 kts 98°
2026-04-09 23:00 40.87131 43.11048 38974 ft 530 kts 98°
2026-04-09 23:00 40.86622 43.20762 38978 ft 530 kts 98°
2026-04-09 23:01 40.86106 43.30466 38980 ft 530 kts 98°
2026-04-09 23:01 40.85582 43.40165 38980 ft 530 kts 98°
2026-04-09 23:02 40.85050 43.49877 38990 ft 530 kts 99°
2026-04-09 23:02 40.84510 43.59569 38991 ft 530 kts 99°
2026-04-09 23:03 40.83962 43.69272 38995 ft 530 kts 99°
2026-04-09 23:03 40.83567 43.79016 38995 ft 531 kts 96°
2026-04-09 23:04 40.83314 43.88731 39005 ft 529 kts 96°
2026-04-09 23:04 40.83027 43.98422 39005 ft 528 kts 97°
2026-04-09 23:05 40.82699 44.08093 39008 ft 527 kts 97°
2026-04-09 23:05 40.82354 44.17774 38995 ft 527 kts 97°
2026-04-09 23:06 40.82003 44.27444 39028 ft 527 kts 97°
2026-04-09 23:06 40.81648 44.37050 39031 ft 527 kts 97°
2026-04-09 23:07 40.81098 44.51532 39047 ft 528 kts 97°
2026-04-09 23:08 40.80720 44.61215 39017 ft 528 kts 97°
2026-04-09 23:08 40.80335 44.70877 39040 ft 529 kts 97°
2026-04-09 23:09 40.79939 44.80595 39044 ft 529 kts 97°
2026-04-09 23:09 40.79540 44.90272 39039 ft 528 kts 97°
2026-04-09 23:10 40.79130 44.99954 39040 ft 529 kts 98°
2026-04-09 23:10 40.78711 45.09631 39044 ft 528 kts 97°
2026-04-09 23:11 40.78284 45.19318 39041 ft 528 kts 98°
2026-04-09 23:11 40.77849 45.28981 39046 ft 528 kts 97°
2026-04-09 23:12 40.77408 45.38628 39039 ft 528 kts 98°
2026-04-09 23:12 40.76980 45.48291 39000 ft 529 kts 95°
2026-04-09 23:13 40.77639 45.57983 39027 ft 529 kts 86°
2026-04-09 23:13 40.78630 45.67592 39036 ft 529 kts 85°
2026-04-09 23:14 40.79651 45.77199 39023 ft 529 kts 85°
2026-04-09 23:14 40.80646 45.86812 39023 ft 529 kts 85°
2026-04-09 23:15 40.81621 45.96437 39016 ft 528 kts 86°
2026-04-09 23:15 40.82584 46.06056 39001 ft 529 kts 86°
2026-04-09 23:16 40.83538 46.15662 39015 ft 528 kts 86°
2026-04-09 23:16 40.84486 46.25284 39015 ft 528 kts 86°
2026-04-09 23:17 40.85426 46.34914 39020 ft 529 kts 86°
2026-04-09 23:17 40.86360 46.44564 39024 ft 530 kts 86°
2026-04-09 23:18 40.87281 46.54158 39025 ft 530 kts 86°
2026-04-09 23:18 40.88198 46.63792 39045 ft 530 kts 86°
2026-04-09 23:19 40.89110 46.73472 39034 ft 530 kts 86°
2026-04-09 23:19 40.89742 46.83140 39053 ft 524 kts 97°
2026-04-09 23:20 40.89211 46.92722 39050 ft 522 kts 100°
2026-04-09 23:20 40.88621 47.00717 39044 ft 522 kts 100°
2026-04-09 23:21 40.87889 47.10263 39063 ft 522 kts 100°
2026-04-09 23:21 40.87171 47.19738 39053 ft 521 kts 100°
2026-04-09 23:22 40.86454 47.29249 39060 ft 521 kts 100°
2026-04-09 23:22 40.85729 47.38771 39067 ft 520 kts 101°
2026-04-09 23:23 40.84999 47.48271 39070 ft 520 kts 101°
2026-04-09 23:23 40.84304 47.57796 39069 ft 521 kts 99°
2026-04-09 23:24 40.83744 47.67356 39077 ft 523 kts 99°
2026-04-09 23:24 40.83183 47.76938 39075 ft 524 kts 99°
2026-04-09 23:25 40.82592 47.86524 39064 ft 524 kts 99°
2026-04-09 23:25 40.81981 47.96098 39058 ft 523 kts 99°
2026-04-09 23:26 40.81360 48.05673 39058 ft 523 kts 99°
2026-04-09 23:26 40.80733 48.15240 39057 ft 523 kts 99°
2026-04-09 23:27 40.80100 48.24794 39057 ft 522 kts 99°
2026-04-09 23:27 40.79459 48.34346 39052 ft 522 kts 99°
2026-04-09 23:28 40.78810 48.43889 39050 ft 522 kts 99°
2026-04-09 23:28 40.78154 48.53416 39064 ft 522 kts 99°
2026-04-09 23:29 40.77490 48.62946 39059 ft 522 kts 99°
2026-04-09 23:29 40.76817 48.72484 39079 ft 521 kts 99°
2026-04-09 23:30 40.76139 48.81998 39087 ft 522 kts 99°
2026-04-09 23:30 40.75451 48.91525 39093 ft 522 kts 99°
2026-04-09 23:31 40.74756 49.01048 39094 ft 522 kts 99°
2026-04-09 23:31 40.74057 49.10511 39095 ft 522 kts 99°
2026-04-09 23:32 40.73341 49.20095 39100 ft 522 kts 99°
2026-04-09 23:32 40.72563 49.29615 39090 ft 521 kts 102°
2026-04-09 23:33 40.71422 49.38951 39096 ft 519 kts 104°
2026-04-09 23:33 40.70199 49.48403 39090 ft 519 kts 103°
2026-04-09 23:34 40.69049 49.57738 39085 ft 520 kts 103°
2026-04-09 23:34 40.67905 49.67137 39074 ft 520 kts 103°
2026-04-09 23:35 40.66751 49.76597 39082 ft 520 kts 103°
2026-04-09 23:35 40.65604 49.85935 39081 ft 520 kts 103°
2026-04-09 23:36 40.64443 49.95328 39078 ft 520 kts 103°
2026-04-09 23:36 40.63273 50.04723 39059 ft 520 kts 103°
2026-04-09 23:37 40.62095 50.14115 39072 ft 519 kts 103°
2026-04-09 23:37 40.60912 50.23485 39081 ft 519 kts 103°
2026-04-09 23:38 40.59721 50.32850 39070 ft 519 kts 103°
2026-04-09 23:38 40.58524 50.42211 39084 ft 519 kts 103°
2026-04-09 23:39 40.57320 50.51551 39085 ft 518 kts 103°
2026-04-09 23:39 40.56110 50.60891 39086 ft 518 kts 103°
2026-04-09 23:40 40.54891 50.70223 39092 ft 518 kts 103°
2026-04-09 23:40 40.53667 50.79545 39092 ft 518 kts 103°
2026-04-09 23:41 40.52435 50.88858 39093 ft 517 kts 103°
2026-04-09 23:41 40.51286 50.98192 39097 ft 517 kts 100°
2026-04-09 23:42 40.50487 51.07605 39100 ft 518 kts 99°
2026-04-09 23:42 40.49715 51.17015 39099 ft 518 kts 99°
2026-04-09 23:43 40.48879 51.26398 39082 ft 517 kts 100°
2026-04-09 23:43 40.48007 51.35761 39099 ft 516 kts 100°
2026-04-09 23:44 40.47124 51.45099 39109 ft 515 kts 100°
2026-04-09 23:44 40.45858 51.54320 39101 ft 512 kts 106°
2026-04-09 23:45 40.44227 51.63417 39102 ft 512 kts 107°
2026-04-09 23:45 40.42550 51.72490 39097 ft 511 kts 107°
2026-04-09 23:46 40.40871 51.81547 39094 ft 511 kts 107°
2026-04-09 23:46 40.39197 51.90582 39110 ft 510 kts 107°
2026-04-09 23:47 40.37515 51.99630 39094 ft 510 kts 107°
2026-04-09 23:47 40.35825 52.08677 39094 ft 510 kts 107°
2026-04-09 23:48 40.34130 52.17710 39089 ft 510 kts 107°
2026-04-09 23:48 40.32430 52.26729 39105 ft 510 kts 107°
2026-04-09 23:49 40.30720 52.35755 39071 ft 510 kts 107°
2026-04-09 23:49 40.29005 52.44768 39091 ft 510 kts 107°
2026-04-09 23:50 40.27285 52.53769 39089 ft 510 kts 107°
2026-04-09 23:50 40.25559 52.62784 39087 ft 509 kts 107°
2026-04-09 23:51 40.23833 52.71764 39069 ft 509 kts 107°
2026-04-09 23:51 40.22106 52.80692 39080 ft 509 kts 107°
2026-04-09 23:52 40.20364 52.89664 39081 ft 509 kts 107°
2026-04-09 23:52 40.18600 52.98711 39077 ft 509 kts 107°
2026-04-09 23:53 40.16855 53.07628 39066 ft 509 kts 107°
2026-04-09 23:53 40.15097 53.16565 39076 ft 508 kts 107°
2026-04-09 23:54 40.13329 53.25516 39074 ft 508 kts 107°
2026-04-09 23:54 40.11557 53.34453 39071 ft 508 kts 107°
2026-04-09 23:55 40.09776 53.43390 39076 ft 508 kts 107°
2026-04-09 23:55 40.07987 53.52327 39072 ft 508 kts 107°
2026-04-09 23:56 40.06188 53.61274 39078 ft 509 kts 107°
2026-04-09 23:56 40.04384 53.70211 39075 ft 509 kts 107°
2026-04-09 23:57 40.02575 53.79135 39074 ft 509 kts 107°
2026-04-09 23:57 40.00770 53.88004 39078 ft 509 kts 107°
2026-04-09 23:58 39.98947 53.96919 39080 ft 509 kts 107°
2026-04-09 23:58 39.97103 54.05893 39078 ft 509 kts 107°
2026-04-09 23:59 39.95281 54.14728 39075 ft 508 kts 107°
2026-04-09 23:59 39.93442 54.23606 39079 ft 507 kts 107°
2026-04-10 00:00 39.91598 54.32476 39076 ft 507 kts 107°
2026-04-10 00:00 39.89744 54.41348 39078 ft 507 kts 107°
2026-04-10 00:01 39.87880 54.50204 39076 ft 507 kts 108°
2026-04-10 00:01 39.86003 54.59044 39075 ft 507 kts 108°
2026-04-10 00:02 39.84116 54.67903 39075 ft 507 kts 108°
2026-04-10 00:02 39.82224 54.76746 39069 ft 507 kts 108°
2026-04-10 00:03 39.80342 54.85583 39072 ft 507 kts 108°
2026-04-10 00:03 39.78449 54.94423 39070 ft 507 kts 108°
2026-04-10 00:04 39.76548 55.03261 39062 ft 507 kts 108°
2026-04-10 00:04 39.74648 55.12064 39061 ft 507 kts 108°
2026-04-10 00:05 39.72733 55.20902 39050 ft 507 kts 108°
2026-04-10 00:05 39.70816 55.29713 39053 ft 507 kts 108°
2026-04-10 00:06 39.68844 55.36841 39048 ft 503 kts 120°
2026-04-10 00:06 39.65416 55.44739 39048 ft 501 kts 123°
2026-04-10 00:07 39.61831 55.52480 39045 ft 501 kts 124°
2026-04-10 00:07 39.58224 55.60214 39045 ft 501 kts 124°
2026-04-10 00:08 39.54624 55.67960 39037 ft 501 kts 124°
2026-04-10 00:08 39.51029 55.75698 39039 ft 501 kts 124°
2026-04-10 00:09 39.47440 55.83431 39037 ft 501 kts 123°
2026-04-10 00:09 39.43902 55.91200 39025 ft 502 kts 123°
2026-04-10 00:10 39.40369 55.98977 39034 ft 501 kts 123°
2026-04-10 00:10 39.36823 56.06737 39029 ft 501 kts 123°
2026-04-10 00:11 39.33269 56.14482 39026 ft 501 kts 123°
2026-04-10 00:11 39.29707 56.22221 39024 ft 501 kts 123°
2026-04-10 00:12 39.26136 56.29961 39026 ft 501 kts 123°
2026-04-10 00:12 39.22561 56.37691 39020 ft 502 kts 123°
2026-04-10 00:13 39.18977 56.45423 39017 ft 503 kts 123°
2026-04-10 00:13 39.15383 56.53157 39014 ft 503 kts 124°
2026-04-10 00:14 39.11789 56.60874 39015 ft 503 kts 124°
2026-04-10 00:14 39.08185 56.68593 39017 ft 503 kts 124°
2026-04-10 00:15 39.04572 56.76312 39007 ft 503 kts 124°
2026-04-10 00:15 38.99152 56.87856 39000 ft 503 kts 124°
2026-04-10 00:16 38.95531 56.95546 39005 ft 503 kts 124°
2026-04-10 00:16 38.91903 57.03231 39008 ft 503 kts 124°
2026-04-10 00:17 38.88277 57.10895 39000 ft 503 kts 124°
2026-04-10 00:17 38.84637 57.18567 38999 ft 503 kts 124°
2026-04-10 00:18 38.81000 57.26217 39001 ft 503 kts 124°
2026-04-10 00:18 38.77345 57.33885 38996 ft 503 kts 124°
2026-04-10 00:19 38.73717 57.41480 38992 ft 504 kts 124°
2026-04-10 00:19 38.70029 57.49180 38994 ft 504 kts 124°
2026-04-10 00:20 38.66358 57.56828 38991 ft 504 kts 124°
2026-04-10 00:20 38.62711 57.64425 38988 ft 505 kts 124°
2026-04-10 00:21 38.59595 57.72523 38985 ft 509 kts 117°
2026-04-10 00:21 38.56697 57.80791 38989 ft 510 kts 116°
2026-04-10 00:22 38.53819 57.89071 38987 ft 510 kts 117°
2026-04-10 00:22 38.50920 57.97357 38988 ft 510 kts 117°
2026-04-10 00:23 38.48015 58.05607 38987 ft 510 kts 117°
2026-04-10 00:23 38.45097 58.13865 38988 ft 510 kts 117°
2026-04-10 00:24 38.42179 58.22104 38977 ft 510 kts 117°
2026-04-10 00:24 38.39040 58.30213 38989 ft 509 kts 123°
2026-04-10 00:25 38.35452 58.37984 38984 ft 509 kts 124°
2026-04-10 00:25 38.31796 58.45719 38988 ft 509 kts 124°
2026-04-10 00:26 38.28141 58.53430 38984 ft 509 kts 124°
2026-04-10 00:26 38.24481 58.61154 38985 ft 510 kts 124°
2026-04-10 00:27 38.20824 58.68866 38990 ft 510 kts 124°
2026-04-10 00:27 38.17153 58.76588 38984 ft 510 kts 124°
2026-04-10 00:28 38.13466 58.84322 38987 ft 512 kts 124°
2026-04-10 00:28 38.09774 58.92050 38990 ft 512 kts 124°
2026-04-10 00:29 38.06100 58.99721 38993 ft 512 kts 124°
2026-04-10 00:29 38.02394 59.07441 39000 ft 513 kts 124°
2026-04-10 00:30 37.98678 59.15163 39006 ft 514 kts 124°
2026-04-10 00:30 37.94948 59.22899 38995 ft 514 kts 124°
2026-04-10 00:31 37.91221 59.30608 38987 ft 514 kts 124°
2026-04-10 00:31 37.87215 59.38098 38999 ft 512 kts 130°
2026-04-10 00:32 37.82930 59.45293 38999 ft 512 kts 130°
2026-04-10 00:32 37.78607 59.52449 39000 ft 512 kts 130°
2026-04-10 00:33 37.74277 59.59606 39004 ft 513 kts 130°
2026-04-10 00:33 37.69935 59.66782 39008 ft 513 kts 131°
2026-04-10 00:34 37.65599 59.73940 39008 ft 514 kts 131°
2026-04-10 00:34 37.61259 59.81087 39006 ft 514 kts 131°
2026-04-10 00:35 37.56901 59.88249 39012 ft 514 kts 131°
2026-04-10 00:35 37.52542 59.95396 39015 ft 514 kts 131°
2026-04-10 00:36 37.48174 60.02542 39014 ft 515 kts 131°
2026-04-10 00:36 37.43797 60.09689 39018 ft 515 kts 131°
2026-04-10 00:37 37.39422 60.16815 39016 ft 515 kts 131°
2026-04-10 00:37 37.35031 60.23954 39019 ft 515 kts 131°
2026-04-10 00:38 37.30641 60.31074 39021 ft 516 kts 131°
2026-04-10 00:38 37.26245 60.38189 39021 ft 516 kts 131°
2026-04-10 00:39 37.21849 60.45291 39021 ft 516 kts 131°
2026-04-10 00:39 37.17439 60.52399 39019 ft 516 kts 131°
2026-04-10 00:40 37.13021 60.59503 39035 ft 516 kts 131°
2026-04-10 00:40 37.10815 60.63046 39145 ft 516 kts 131°
2026-04-10 00:40 37.08634 60.66544 39316 ft 516 kts 131°
2026-04-10 00:41 37.06427 60.70082 39434 ft 516 kts 132°
2026-04-10 00:41 37.04189 60.73664 39534 ft 517 kts 132°
2026-04-10 00:41 37.01998 60.77166 39669 ft 517 kts 132°
2026-04-10 00:41 36.99784 60.80703 39838 ft 516 kts 132°
2026-04-10 00:42 36.97570 60.84237 39956 ft 516 kts 132°
2026-04-10 00:42 36.95391 60.87808 40079 ft 518 kts 130°
2026-04-10 00:42 36.93276 60.91536 40206 ft 518 kts 128°
2026-04-10 00:42 36.91236 60.95253 40269 ft 520 kts 128°
2026-04-10 00:43 36.87175 61.02663 40466 ft 520 kts 129°
2026-04-10 00:43 36.85107 61.06384 40594 ft 520 kts 129°
2026-04-10 00:43 36.83037 61.10078 40725 ft 519 kts 129°
2026-04-10 00:44 36.80965 61.13754 40836 ft 519 kts 129°
2026-04-10 00:44 36.78879 61.17442 40932 ft 519 kts 129°
2026-04-10 00:44 36.74706 61.24796 41028 ft 521 kts 129°
2026-04-10 00:45 36.70507 61.32186 41028 ft 522 kts 129°
2026-04-10 00:45 36.66312 61.39560 41028 ft 521 kts 129°
2026-04-10 00:46 36.62113 61.46925 41026 ft 521 kts 130°
2026-04-10 00:46 36.57861 61.54257 41035 ft 522 kts 130°
2026-04-10 00:47 36.53563 61.61532 41037 ft 522 kts 131°
2026-04-10 00:47 36.49267 61.68805 41037 ft 522 kts 130°
2026-04-10 00:48 36.44971 61.76089 41043 ft 523 kts 131°
2026-04-10 00:48 36.40664 61.83383 41040 ft 524 kts 131°
2026-04-10 00:49 36.36351 61.90674 41041 ft 524 kts 131°
2026-04-10 00:49 36.32066 61.97901 41033 ft 524 kts 131°
2026-04-10 00:50 36.27706 62.05237 41051 ft 526 kts 131°
2026-04-10 00:50 36.23388 62.12486 41050 ft 526 kts 131°
2026-04-10 00:51 36.19036 62.19780 41053 ft 526 kts 131°
2026-04-10 00:51 36.14690 62.27048 41051 ft 527 kts 132°
2026-04-10 00:52 36.10322 62.34336 41059 ft 527 kts 132°
2026-04-10 00:52 36.06679 62.40401 41060 ft 527 kts 132°
2026-04-10 00:53 36.02278 62.47718 41046 ft 527 kts 132°
2026-04-10 00:53 35.97895 62.54986 41056 ft 528 kts 132°
2026-04-10 00:54 35.93539 62.62196 41072 ft 528 kts 132°
2026-04-10 00:54 35.89141 62.69459 41077 ft 528 kts 132°
2026-04-10 00:55 35.84747 62.76701 41064 ft 528 kts 133°
2026-04-10 00:55 35.80334 62.83957 41073 ft 530 kts 133°
2026-04-10 00:56 35.75914 62.91210 41066 ft 530 kts 133°
2026-04-10 00:56 35.71483 62.98469 41070 ft 530 kts 133°
2026-04-10 00:57 35.67052 63.05711 41071 ft 530 kts 133°
2026-04-10 00:57 35.62616 63.12947 41070 ft 530 kts 133°
2026-04-10 00:58 35.58175 63.20175 41071 ft 530 kts 133°
2026-04-10 00:58 35.53705 63.27372 41055 ft 529 kts 134°
2026-04-10 00:59 35.49202 63.34531 41072 ft 531 kts 134°
2026-04-10 00:59 35.44688 63.41700 41074 ft 531 kts 134°
2026-04-10 01:00 35.40176 63.48871 41080 ft 531 kts 134°
2026-04-10 01:00 35.35663 63.56033 41079 ft 531 kts 134°
2026-04-10 01:01 35.31133 63.63201 41100 ft 533 kts 134°
2026-04-10 01:01 35.26596 63.70399 41105 ft 533 kts 134°
2026-04-10 01:02 35.22075 63.77576 41115 ft 533 kts 134°
2026-04-10 01:02 35.17543 63.84753 41124 ft 534 kts 134°
2026-04-10 01:03 35.12992 63.91943 41139 ft 535 kts 134°
2026-04-10 01:03 35.08441 63.99119 41147 ft 535 kts 134°
2026-04-10 01:04 35.03879 64.06299 41128 ft 534 kts 135°
2026-04-10 01:04 34.99315 64.13464 41164 ft 535 kts 135°
2026-04-10 01:05 34.94747 64.20623 41165 ft 535 kts 135°
2026-04-10 01:05 34.90169 64.27785 41169 ft 535 kts 135°
2026-04-10 01:06 34.85598 64.34921 41158 ft 535 kts 135°
2026-04-10 01:06 34.80999 64.42077 41175 ft 539 kts 135°
2026-04-10 01:07 34.76371 64.49271 41171 ft 539 kts 135°
2026-04-10 01:07 34.71754 64.56439 41165 ft 538 kts 135°
2026-04-10 01:08 34.67170 64.63539 41160 ft 538 kts 136°
2026-04-10 01:08 34.62526 64.70709 41160 ft 541 kts 136°
2026-04-10 01:09 34.57870 64.77890 41156 ft 541 kts 136°
2026-04-10 01:09 34.53220 64.85047 41151 ft 541 kts 136°
2026-04-10 01:10 34.48560 64.92210 41150 ft 541 kts 136°
2026-04-10 01:10 34.43888 64.99360 41154 ft 541 kts 136°
2026-04-10 01:11 34.39197 65.06507 41144 ft 542 kts 136°
2026-04-10 01:11 34.34507 65.13643 41111 ft 542 kts 136°
2026-04-10 01:12 34.29812 65.20775 41140 ft 542 kts 136°
2026-04-10 01:12 34.25110 65.27907 41143 ft 542 kts 136°
2026-04-10 01:13 34.20405 65.35029 41145 ft 542 kts 136°
2026-04-10 01:13 34.15694 65.42146 41137 ft 543 kts 137°
2026-04-10 01:14 34.10969 65.49270 41151 ft 544 kts 137°
2026-04-10 01:14 34.06240 65.56388 41150 ft 544 kts 137°
2026-04-10 01:15 34.01510 65.63507 41149 ft 544 kts 137°
2026-04-10 01:15 33.96763 65.70645 41150 ft 545 kts 137°
2026-04-10 01:16 33.92025 65.77756 41154 ft 545 kts 137°
2026-04-10 01:17 33.84912 65.88413 41157 ft 544 kts 137°
2026-04-10 01:17 33.80161 65.95495 41131 ft 544 kts 137°
2026-04-10 01:18 33.75403 66.02582 41157 ft 546 kts 138°
2026-04-10 01:18 33.70634 66.09670 41148 ft 545 kts 138°
2026-04-10 01:19 33.65870 66.16744 41144 ft 544 kts 137°
2026-04-10 01:19 33.61093 66.23813 41133 ft 546 kts 138°
2026-04-10 01:20 33.56300 66.30890 41146 ft 548 kts 138°
2026-04-10 01:20 33.51494 66.37980 41146 ft 548 kts 138°
2026-04-10 01:21 33.46713 66.45023 41141 ft 548 kts 138°
2026-04-10 01:21 33.41872 66.52138 41128 ft 547 kts 139°
2026-04-10 01:22 33.37067 66.59136 41152 ft 549 kts 138°
2026-04-10 01:22 33.32208 66.66207 41147 ft 550 kts 139°
2026-04-10 01:23 33.27348 66.73272 41144 ft 550 kts 139°
2026-04-10 01:23 33.22487 66.80329 41154 ft 550 kts 139°
2026-04-10 01:24 33.17585 66.87431 41153 ft 551 kts 139°
2026-04-10 01:24 33.12744 66.94431 41141 ft 551 kts 139°
2026-04-10 01:25 33.07867 67.01470 41150 ft 551 kts 139°
2026-04-10 01:25 33.02981 67.08507 41136 ft 551 kts 139°
2026-04-10 01:26 32.98094 67.15535 41153 ft 551 kts 139°
2026-04-10 01:26 32.93209 67.22545 41146 ft 550 kts 139°
2026-04-10 01:27 32.88306 67.29564 41136 ft 551 kts 139°
2026-04-10 01:27 32.83405 67.36569 41138 ft 552 kts 140°
2026-04-10 01:28 32.78488 67.43585 41137 ft 552 kts 140°
2026-04-10 01:28 32.73525 67.50521 41131 ft 550 kts 141°
2026-04-10 01:29 32.68429 67.57294 41133 ft 549 kts 142°
2026-04-10 01:29 32.63347 67.64033 41129 ft 548 kts 142°
2026-04-10 01:30 32.58273 67.70800 41135 ft 548 kts 142°
2026-04-10 01:30 32.53223 67.77550 41132 ft 548 kts 142°
2026-04-10 01:31 32.48174 67.84332 41136 ft 550 kts 141°
2026-04-10 01:31 32.43295 67.91341 41124 ft 552 kts 139°
2026-04-10 01:32 32.38461 67.98405 41139 ft 552 kts 140°
2026-04-10 01:32 32.33600 68.05424 41140 ft 551 kts 140°
2026-04-10 01:33 32.28726 68.12397 41143 ft 551 kts 140°
2026-04-10 01:33 32.23834 68.19372 41132 ft 551 kts 140°
2026-04-10 01:34 32.18939 68.26339 41154 ft 551 kts 140°
2026-04-10 01:34 32.14048 68.33292 41159 ft 551 kts 140°
2026-04-10 01:35 32.09137 68.40260 41161 ft 551 kts 140°
2026-04-10 01:35 32.04234 68.47206 41165 ft 551 kts 140°
2026-04-10 01:36 31.99336 68.54131 41160 ft 551 kts 140°
2026-04-10 01:36 31.94446 68.61028 41168 ft 552 kts 140°
2026-04-10 01:37 31.89513 68.67977 41165 ft 553 kts 140°
2026-04-10 01:37 31.84583 68.74909 41146 ft 552 kts 140°
2026-04-10 01:38 31.79648 68.81834 41165 ft 553 kts 140°
2026-04-10 01:38 31.75513 68.87628 41164 ft 553 kts 140°
2026-04-10 01:39 31.70558 68.94557 41167 ft 555 kts 140°
2026-04-10 01:39 31.65631 69.01442 41150 ft 555 kts 140°
2026-04-10 01:40 31.60797 69.08548 41152 ft 558 kts 138°
2026-04-10 01:40 31.56036 69.15728 41159 ft 557 kts 138°
2026-04-10 01:41 31.51260 69.22866 41149 ft 556 kts 138°
2026-04-10 01:41 31.46458 69.29980 41150 ft 556 kts 139°
2026-04-10 01:42 31.41649 69.37072 41141 ft 557 kts 139°
2026-04-10 01:42 31.36391 69.43454 41153 ft 529 kts 155°
2026-04-10 01:42 31.33346 69.45711 41152 ft 508 kts 166°
2026-04-10 01:43 31.30155 69.47255 41148 ft 488 kts 176°
2026-04-10 01:43 31.23663 69.49099 41147 ft 478 kts 181°
2026-04-10 01:44 31.17164 69.50658 41137 ft 477 kts 182°
2026-04-10 01:44 31.10658 69.52222 41145 ft 477 kts 181°
2026-04-10 01:45 31.04174 69.53818 41146 ft 477 kts 181°
2026-04-10 01:45 30.97661 69.55435 41146 ft 478 kts 181°
2026-04-10 01:46 30.91156 69.57051 41144 ft 478 kts 181°
2026-04-10 01:46 30.84653 69.58663 41149 ft 478 kts 181°
2026-04-10 01:47 30.78149 69.60272 41147 ft 478 kts 181°
2026-04-10 01:47 30.71694 69.61866 41145 ft 478 kts 181°
2026-04-10 01:48 30.65146 69.63480 41144 ft 478 kts 181°
2026-04-10 01:48 30.58674 69.65071 41143 ft 479 kts 181°
2026-04-10 01:49 30.52140 69.66679 41143 ft 479 kts 181°
2026-04-10 01:49 30.45623 69.68281 41144 ft 479 kts 181°
2026-04-10 01:50 30.39102 69.69881 41146 ft 480 kts 181°
2026-04-10 01:50 30.32575 69.71477 41137 ft 480 kts 181°
2026-04-10 01:51 30.26039 69.73075 41139 ft 480 kts 181°
2026-04-10 01:51 30.19498 69.74798 41136 ft 484 kts 178°
2026-04-10 01:52 30.12969 69.76765 41137 ft 485 kts 178°
2026-04-10 01:52 30.06441 69.78729 41135 ft 485 kts 178°
2026-04-10 01:53 29.99902 69.80649 41127 ft 484 kts 178°
2026-04-10 01:53 29.93366 69.82547 41133 ft 484 kts 178°
2026-04-10 01:54 29.86833 69.84441 41124 ft 483 kts 178°
2026-04-10 01:54 29.80404 69.86321 41104 ft 464 kts 178°
2026-04-10 01:54 29.77330 69.87232 41100 ft 449 kts 179°
2026-04-10 01:55 29.74338 69.88116 41102 ft 435 kts 179°
2026-04-10 01:55 29.71495 69.88950 41098 ft 421 kts 180°
2026-04-10 01:55 29.68677 69.89771 41090 ft 405 kts 180°
2026-04-10 01:56 29.63235 69.91310 41108 ft 407 kts 181°
2026-04-10 01:56 29.57652 69.92869 41099 ft 413 kts 180°
2026-04-10 01:57 29.52077 69.94458 41098 ft 419 kts 180°
2026-04-10 01:57 29.46390 69.96093 41098 ft 424 kts 180°
2026-04-10 01:58 29.40627 69.97751 41061 ft 429 kts 179°
2026-04-10 01:58 29.34798 69.99426 41104 ft 435 kts 179°
2026-04-10 01:59 29.28887 70.01119 41080 ft 441 kts 179°
2026-04-10 01:59 29.22903 70.02832 41080 ft 447 kts 179°
2026-04-10 02:00 29.16808 70.04573 41084 ft 454 kts 179°
2026-04-10 02:00 29.10642 70.06335 41077 ft 460 kts 178°
2026-04-10 02:01 29.04394 70.08118 41074 ft 466 kts 178°
2026-04-10 02:01 28.98053 70.09924 41064 ft 473 kts 178°
2026-04-10 02:02 28.91619 70.11755 41065 ft 479 kts 178°
2026-04-10 02:02 28.85112 70.13605 41052 ft 484 kts 177°
2026-04-10 02:03 28.78545 70.15470 41062 ft 489 kts 177°
2026-04-10 02:03 28.71925 70.17349 41058 ft 491 kts 177°
2026-04-10 02:04 28.65347 70.19226 41049 ft 484 kts 177°
2026-04-10 02:04 28.58827 70.21073 41045 ft 483 kts 177°
2026-04-10 02:05 28.52301 70.22909 41047 ft 483 kts 177°
2026-04-10 02:05 28.45774 70.24772 41043 ft 487 kts 175°
2026-04-10 02:05 28.42543 70.26092 41045 ft 500 kts 166°
2026-04-10 02:06 28.39451 70.27999 41045 ft 515 kts 156°
2026-04-10 02:06 28.36606 70.30560 41045 ft 531 kts 145°
2026-04-10 02:06 28.34143 70.33781 41027 ft 547 kts 133°
2026-04-10 02:07 28.30451 70.41461 41037 ft 558 kts 122°
2026-04-10 02:07 28.27133 70.49446 41035 ft 560 kts 122°
2026-04-10 02:08 28.23807 70.57429 41032 ft 560 kts 122°
2026-04-10 02:08 28.20422 70.65392 41039 ft 560 kts 122°
2026-04-10 02:09 28.17018 70.73324 41035 ft 560 kts 123°
2026-04-10 02:09 28.13604 70.81258 41033 ft 560 kts 123°
2026-04-10 02:10 28.10192 70.89180 41035 ft 559 kts 122°
2026-04-10 02:10 28.06776 70.97095 41034 ft 559 kts 123°
2026-04-10 02:11 28.03379 71.04952 41037 ft 560 kts 123°
2026-04-10 02:11 27.99930 71.12916 41031 ft 560 kts 123°
2026-04-10 02:12 27.96529 71.20753 41035 ft 559 kts 123°
2026-04-10 02:12 27.93092 71.28659 41017 ft 559 kts 123°
2026-04-10 02:13 27.89662 71.36533 41035 ft 558 kts 123°
2026-04-10 02:13 27.86224 71.44406 41037 ft 558 kts 123°
2026-04-10 02:14 27.82680 71.52188 41035 ft 556 kts 124°
2026-04-10 02:14 27.79068 71.59921 41034 ft 557 kts 124°
2026-04-10 02:15 27.75466 71.67666 41033 ft 558 kts 124°
2026-04-10 02:15 27.71872 71.75430 41001 ft 558 kts 124°
2026-04-10 02:16 27.68282 71.83187 41033 ft 557 kts 124°
2026-04-10 02:16 27.64693 71.90927 41036 ft 556 kts 124°
2026-04-10 02:17 27.59295 72.02531 41038 ft 557 kts 124°
2026-04-10 02:17 27.55689 72.10265 41035 ft 557 kts 124°
2026-04-10 02:18 27.52087 72.17979 41041 ft 557 kts 124°
2026-04-10 02:18 27.48473 72.25702 41045 ft 557 kts 124°
2026-04-10 02:19 27.44865 72.33402 41048 ft 555 kts 124°
2026-04-10 02:19 27.41280 72.41034 41056 ft 555 kts 124°
2026-04-10 02:20 27.37671 72.48704 41049 ft 555 kts 124°
2026-04-10 02:20 27.34062 72.56361 41057 ft 554 kts 124°
2026-04-10 02:21 27.30418 72.64078 41052 ft 554 kts 124°
2026-04-10 02:21 27.26823 72.71677 41056 ft 554 kts 124°
2026-04-10 02:22 27.23205 72.79313 41059 ft 554 kts 124°
2026-04-10 02:22 27.19554 72.87003 41061 ft 554 kts 124°
2026-04-10 02:23 27.15953 72.94575 41064 ft 554 kts 124°
2026-04-10 02:23 27.12321 73.02197 41064 ft 554 kts 124°
2026-04-10 02:24 27.08679 73.09829 41070 ft 554 kts 124°
2026-04-10 02:24 27.05041 73.17438 41063 ft 554 kts 124°
2026-04-10 02:25 27.01997 73.23794 41075 ft 551 kts 124°
2026-04-10 02:25 26.98394 73.31307 41079 ft 550 kts 124°
2026-04-10 02:26 26.94738 73.38912 41078 ft 550 kts 124°
2026-04-10 02:26 26.91089 73.46390 41078 ft 550 kts 124°
2026-04-10 02:27 26.87397 73.53903 41083 ft 550 kts 124°
2026-04-10 02:27 26.83707 73.61413 41081 ft 550 kts 124°
2026-04-10 02:28 26.80018 73.68923 41081 ft 550 kts 124°
2026-04-10 02:28 26.76334 73.76414 41089 ft 549 kts 124°
2026-04-10 02:29 26.72653 73.83884 41086 ft 548 kts 124°
2026-04-10 02:29 26.68965 73.91354 41093 ft 548 kts 124°
2026-04-10 02:30 26.65280 73.98804 41093 ft 548 kts 124°
2026-04-10 02:30 26.61590 74.06254 41090 ft 548 kts 124°
2026-04-10 02:31 26.57884 74.13723 41094 ft 549 kts 124°
2026-04-10 02:31 26.54188 74.21166 41091 ft 548 kts 124°
2026-04-10 02:32 26.50541 74.28619 41094 ft 547 kts 123°
2026-04-10 02:32 26.46902 74.36082 41098 ft 547 kts 123°
2026-04-10 02:33 26.43252 74.43537 41098 ft 548 kts 123°
2026-04-10 02:33 26.39595 74.50981 41099 ft 548 kts 124°
2026-04-10 02:34 26.35930 74.58428 41102 ft 548 kts 124°
2026-04-10 02:34 26.32257 74.65877 41097 ft 547 kts 123°
2026-04-10 02:35 26.28590 74.73305 41107 ft 546 kts 123°
2026-04-10 02:35 26.24935 74.80694 41106 ft 545 kts 123°
2026-04-10 02:36 26.21266 74.88099 41104 ft 546 kts 123°
2026-04-10 02:36 26.17591 74.95429 41100 ft 543 kts 127°
2026-04-10 02:37 26.13468 75.02437 41106 ft 541 kts 129°
2026-04-10 02:37 26.09246 75.09385 41107 ft 541 kts 129°
2026-04-10 02:38 26.05024 75.16302 41107 ft 539 kts 129°
2026-04-10 02:38 26.00821 75.23192 41102 ft 538 kts 129°
2026-04-10 02:39 25.96620 75.30075 41104 ft 538 kts 129°
2026-04-10 02:39 25.92415 75.36958 41105 ft 538 kts 129°
2026-04-10 02:40 25.88211 75.43831 41101 ft 538 kts 129°
2026-04-10 02:40 25.83856 75.50561 41100 ft 536 kts 133°
2026-04-10 02:41 25.79303 75.57106 41091 ft 534 kts 133°
2026-04-10 02:41 25.74781 75.63636 41110 ft 533 kts 132°
2026-04-10 02:42 25.70300 75.70183 41108 ft 533 kts 132°
2026-04-10 02:42 25.65829 75.76742 41103 ft 533 kts 132°
2026-04-10 02:43 25.61346 75.83309 41081 ft 534 kts 132°
2026-04-10 02:43 25.56867 75.89858 41062 ft 534 kts 132°
2026-04-10 02:44 25.52389 75.96396 41092 ft 532 kts 132°
2026-04-10 02:44 25.47920 76.02912 41093 ft 531 kts 132°
2026-04-10 02:45 25.43443 76.09428 41090 ft 531 kts 132°
2026-04-10 02:45 25.38972 76.15925 41088 ft 531 kts 132°
2026-04-10 02:46 25.34499 76.22419 41090 ft 531 kts 132°
2026-04-10 02:46 25.30052 76.28867 41069 ft 531 kts 132°
2026-04-10 02:47 25.25584 76.35337 41086 ft 528 kts 132°
2026-04-10 02:47 25.21128 76.41780 41089 ft 527 kts 132°
2026-04-10 02:48 25.16670 76.48214 41089 ft 527 kts 132°
2026-04-10 02:48 25.12210 76.54644 41084 ft 528 kts 132°
2026-04-10 02:49 25.07744 76.61074 41088 ft 528 kts 132°
2026-04-10 02:49 25.03282 76.67491 41070 ft 528 kts 132°
2026-04-10 02:50 24.98631 76.73713 41083 ft 522 kts 137°
2026-04-10 02:50 24.93666 76.79538 41090 ft 521 kts 139°
2026-04-10 02:51 24.88659 76.85304 41089 ft 521 kts 139°
2026-04-10 02:51 24.83647 76.91069 41093 ft 521 kts 139°
2026-04-10 02:52 24.78638 76.96839 41096 ft 521 kts 139°
2026-04-10 02:52 24.73632 77.02605 41093 ft 522 kts 139°
2026-04-10 02:53 24.68617 77.08374 41097 ft 522 kts 139°
2026-04-10 02:53 24.63598 77.14141 41093 ft 522 kts 139°
2026-04-10 02:54 24.58585 77.19893 41098 ft 522 kts 139°
2026-04-10 02:54 24.53557 77.25655 41090 ft 522 kts 139°
2026-04-10 02:55 24.48536 77.31401 41088 ft 522 kts 139°
2026-04-10 02:55 24.43514 77.37143 41084 ft 521 kts 139°
2026-04-10 02:56 24.38501 77.42867 41085 ft 520 kts 139°
2026-04-10 02:56 24.33479 77.48593 41083 ft 520 kts 139°
2026-04-10 02:57 24.28470 77.54298 41084 ft 520 kts 139°
2026-04-10 02:57 24.23447 77.60012 41100 ft 520 kts 139°
2026-04-10 02:58 24.18457 77.65681 41090 ft 520 kts 138°
2026-04-10 02:58 24.13453 77.71361 41090 ft 518 kts 138°
2026-04-10 02:59 24.08454 77.77027 41092 ft 517 kts 139°
2026-04-10 03:00 24.00955 77.85513 41086 ft 517 kts 139°
2026-04-10 03:00 23.95953 77.91166 41092 ft 517 kts 139°
2026-04-10 03:01 23.90953 77.96810 41074 ft 517 kts 138°
2026-04-10 03:01 23.85949 78.02451 41088 ft 516 kts 138°
2026-04-10 03:02 23.80960 78.08070 41087 ft 515 kts 138°
2026-04-10 03:02 23.75973 78.13679 41085 ft 515 kts 138°
2026-04-10 03:03 23.70975 78.19293 41086 ft 515 kts 138°
2026-04-10 03:03 23.65978 78.24900 41089 ft 515 kts 138°
2026-04-10 03:04 23.60990 78.30491 41082 ft 515 kts 138°
2026-04-10 03:04 23.55989 78.36090 41086 ft 514 kts 138°
2026-04-10 03:05 23.51001 78.41667 41090 ft 514 kts 138°
2026-04-10 03:05 23.46011 78.47241 41089 ft 514 kts 138°
2026-04-10 03:06 23.41018 78.52811 41086 ft 514 kts 138°
2026-04-10 03:06 23.36030 78.58370 41083 ft 514 kts 138°
2026-04-10 03:07 23.31024 78.63941 41083 ft 513 kts 138°
2026-04-10 03:07 23.26076 78.69444 41085 ft 512 kts 138°
2026-04-10 03:08 23.21063 78.75012 41083 ft 512 kts 138°
2026-04-10 03:08 23.13489 78.83111 41083 ft 511 kts 140°
2026-04-10 03:09 23.08388 78.88496 41080 ft 511 kts 140°
2026-04-10 03:09 23.03304 78.93890 41068 ft 511 kts 139°
2026-04-10 03:10 22.98226 78.99288 41085 ft 510 kts 139°
2026-04-10 03:10 22.93160 79.04670 41086 ft 509 kts 139°
2026-04-10 03:11 22.88100 79.10037 41083 ft 509 kts 139°
2026-04-10 03:11 22.83027 79.15412 41087 ft 510 kts 139°
2026-04-10 03:12 22.77955 79.20779 41086 ft 510 kts 139°
2026-04-10 03:12 22.73738 79.25238 41077 ft 509 kts 139°
2026-04-10 03:13 22.68667 79.30594 41091 ft 508 kts 139°
2026-04-10 03:13 22.63610 79.35930 41092 ft 508 kts 139°
2026-04-10 03:14 22.58547 79.41265 41088 ft 508 kts 139°
2026-04-10 03:14 22.53505 79.46629 41089 ft 509 kts 138°
2026-04-10 03:15 22.48559 79.52114 41085 ft 509 kts 137°
2026-04-10 03:15 22.43629 79.57598 41068 ft 509 kts 137°
2026-04-10 03:16 22.38679 79.63062 41081 ft 508 kts 137°
2026-04-10 03:16 22.33740 79.68490 41079 ft 507 kts 137°
2026-04-10 03:17 22.28785 79.73926 41070 ft 507 kts 137°
2026-04-10 03:17 22.23837 79.79349 41067 ft 507 kts 137°
2026-04-10 03:18 22.18882 79.84775 41067 ft 507 kts 137°
2026-04-10 03:18 22.13925 79.90199 41043 ft 507 kts 137°
2026-04-10 03:19 22.09007 79.95572 41059 ft 507 kts 137°
2026-04-10 03:19 22.04058 80.00976 41058 ft 506 kts 137°
2026-04-10 03:20 21.99101 80.06381 41048 ft 506 kts 137°
2026-04-10 03:20 21.94147 80.11778 41048 ft 506 kts 137°
2026-04-10 03:21 21.89196 80.17166 41041 ft 506 kts 137°
2026-04-10 03:21 21.84238 80.22556 41040 ft 507 kts 137°
2026-04-10 03:22 21.79277 80.27943 41043 ft 507 kts 137°
2026-04-10 03:22 21.74316 80.33325 41037 ft 506 kts 137°
2026-04-10 03:23 21.69350 80.38706 41037 ft 507 kts 137°
2026-04-10 03:23 21.64391 80.44075 41037 ft 507 kts 137°
2026-04-10 03:24 21.59423 80.49448 41036 ft 506 kts 137°
2026-04-10 03:24 21.54450 80.54820 41038 ft 506 kts 137°
2026-04-10 03:25 21.49493 80.60171 41034 ft 505 kts 137°
2026-04-10 03:25 21.44570 80.65577 41037 ft 505 kts 136°
2026-04-10 03:26 21.39688 80.70991 41038 ft 505 kts 136°
2026-04-10 03:26 21.34791 80.76406 41044 ft 505 kts 136°
2026-04-10 03:27 21.29924 80.81769 41042 ft 505 kts 137°
2026-04-10 03:27 21.25016 80.87160 41043 ft 505 kts 137°
2026-04-10 03:28 21.20109 80.92545 41043 ft 505 kts 136°
2026-04-10 03:28 21.15177 80.97954 41046 ft 504 kts 136°
2026-04-10 03:29 21.10308 81.03291 41042 ft 504 kts 136°
2026-04-10 03:29 21.05414 81.08648 41045 ft 504 kts 137°
2026-04-10 03:30 21.00510 81.14012 41044 ft 504 kts 137°
2026-04-10 03:30 20.95606 81.19369 41049 ft 504 kts 137°
2026-04-10 03:31 20.90700 81.24724 41031 ft 504 kts 136°
2026-04-10 03:31 20.85799 81.30069 41047 ft 502 kts 136°
2026-04-10 03:32 20.80917 81.35388 41045 ft 502 kts 136°
2026-04-10 03:32 20.76042 81.40732 41037 ft 502 kts 136°
2026-04-10 03:33 20.71210 81.46110 41043 ft 502 kts 136°
2026-04-10 03:33 20.66367 81.51499 41039 ft 502 kts 136°
2026-04-10 03:34 20.61532 81.56862 41041 ft 502 kts 136°
2026-04-10 03:34 20.56719 81.62189 41043 ft 501 kts 136°
2026-04-10 03:35 20.51886 81.67534 41041 ft 500 kts 136°
2026-04-10 03:35 20.47058 81.72866 41041 ft 500 kts 136°
2026-04-10 03:36 20.42213 81.78214 41034 ft 500 kts 136°
2026-04-10 03:36 20.37382 81.83541 41027 ft 500 kts 136°
2026-04-10 03:37 20.32538 81.88876 41035 ft 500 kts 136°
2026-04-10 03:37 20.27703 81.94197 41028 ft 500 kts 136°
2026-04-10 03:38 20.22862 81.99520 41031 ft 499 kts 136°
2026-04-10 03:38 20.18055 82.04841 41031 ft 499 kts 135°
2026-04-10 03:39 20.13258 82.10183 41028 ft 499 kts 135°
2026-04-10 03:39 20.08463 82.15516 41020 ft 499 kts 135°
2026-04-10 03:40 20.03657 82.20849 41025 ft 499 kts 135°
2026-04-10 03:40 19.98855 82.26170 41021 ft 499 kts 135°
2026-04-10 03:41 19.94047 82.31492 41024 ft 498 kts 135°
2026-04-10 03:41 19.89250 82.36798 41025 ft 497 kts 135°
2026-04-10 03:42 19.84459 82.42092 41011 ft 497 kts 135°
2026-04-10 03:42 19.79666 82.47383 41011 ft 497 kts 136°
2026-04-10 03:43 19.74860 82.52684 41022 ft 498 kts 136°
2026-04-10 03:43 19.70093 82.57937 41009 ft 498 kts 136°
2026-04-10 03:44 19.65290 82.63225 41006 ft 498 kts 136°
2026-04-10 03:44 19.60488 82.68507 41012 ft 497 kts 135°
2026-04-10 03:45 19.55665 82.73808 41005 ft 496 kts 135°
2026-04-10 03:45 19.50900 82.79039 41012 ft 496 kts 136°
2026-04-10 03:46 19.46103 82.84301 41021 ft 497 kts 136°
2026-04-10 03:46 19.41289 82.89576 41012 ft 498 kts 136°
2026-04-10 03:47 19.36479 82.94843 41020 ft 497 kts 136°
2026-04-10 03:47 19.31664 83.00111 41019 ft 497 kts 136°
2026-04-10 03:48 19.26852 83.05371 41022 ft 498 kts 136°
2026-04-10 03:48 19.22034 83.10632 41029 ft 498 kts 136°
2026-04-10 03:49 19.17214 83.15890 41021 ft 497 kts 136°
2026-04-10 03:49 19.12390 83.21148 41017 ft 498 kts 136°
2026-04-10 03:50 19.07566 83.26401 41018 ft 499 kts 136°
2026-04-10 03:50 19.02736 83.31657 41010 ft 499 kts 136°
2026-04-10 03:51 18.97900 83.36916 40999 ft 499 kts 136°
2026-04-10 03:51 18.93059 83.42175 41002 ft 499 kts 136°
2026-04-10 03:52 18.88213 83.47429 40995 ft 499 kts 136°
2026-04-10 03:52 18.83376 83.52669 40988 ft 499 kts 136°
2026-04-10 03:53 18.78524 83.57923 40991 ft 500 kts 136°
2026-04-10 03:53 18.73703 83.63139 40988 ft 500 kts 136°
2026-04-10 03:54 18.68843 83.68392 40987 ft 500 kts 136°
2026-04-10 03:54 18.63978 83.73647 40987 ft 500 kts 136°
2026-04-10 03:55 18.59118 83.78892 40982 ft 500 kts 136°
2026-04-10 03:55 18.54248 83.84142 40985 ft 500 kts 136°
2026-04-10 03:56 18.49386 83.89380 40982 ft 500 kts 136°
2026-04-10 03:56 18.44516 83.94621 40984 ft 500 kts 136°
2026-04-10 03:57 18.39645 83.99859 40987 ft 500 kts 136°
2026-04-10 03:57 18.34782 84.05085 40989 ft 500 kts 136°
2026-04-10 03:58 18.29910 84.10316 40984 ft 500 kts 136°
2026-04-10 03:58 18.25031 84.15535 40985 ft 500 kts 136°
2026-04-10 03:59 18.20133 84.20713 40986 ft 500 kts 136°
2026-04-10 03:59 18.15232 84.25891 40987 ft 500 kts 136°
2026-04-10 04:00 18.10332 84.31072 40990 ft 500 kts 136°
2026-04-10 04:00 18.06254 84.35384 40991 ft 500 kts 136°
2026-04-10 04:01 18.01351 84.40567 40988 ft 500 kts 136°
2026-04-10 04:01 17.96452 84.45739 40988 ft 499 kts 136°
2026-04-10 04:02 17.90756 84.51749 40987 ft 498 kts 136°
2026-04-10 04:02 17.86659 84.56067 40988 ft 498 kts 136°
2026-04-10 04:03 17.81767 84.61219 40988 ft 498 kts 136°
2026-04-10 04:03 17.76873 84.66369 40989 ft 498 kts 136°
2026-04-10 04:04 17.71976 84.71518 40990 ft 498 kts 136°
2026-04-10 04:04 17.67082 84.76660 40985 ft 499 kts 136°
2026-04-10 04:05 17.62226 84.81841 40991 ft 498 kts 135°
2026-04-10 04:05 17.57401 84.87055 40990 ft 498 kts 135°
2026-04-10 04:06 17.52611 84.92222 40994 ft 497 kts 135°
2026-04-10 04:06 17.47782 84.97411 40993 ft 498 kts 135°
2026-04-10 04:07 17.42943 85.02602 40989 ft 498 kts 135°
2026-04-10 04:07 17.38107 85.07786 40991 ft 498 kts 135°
2026-04-10 04:08 17.33267 85.12970 40985 ft 498 kts 135°
2026-04-10 04:08 17.28436 85.18141 40989 ft 497 kts 135°
2026-04-10 04:09 17.23605 85.23308 40993 ft 497 kts 135°
2026-04-10 04:09 17.18764 85.28482 40993 ft 497 kts 135°
2026-04-10 04:10 17.13955 85.33684 40993 ft 497 kts 134°
2026-04-10 04:10 17.09297 85.39027 40992 ft 498 kts 133°
2026-04-10 04:11 17.04657 85.44387 40993 ft 498 kts 133°
2026-04-10 04:11 16.99982 85.49733 40996 ft 498 kts 133°
2026-04-10 04:12 16.95306 85.55049 40992 ft 496 kts 133°
2026-04-10 04:12 16.90644 85.60342 40993 ft 495 kts 133°
2026-04-10 04:13 16.85988 85.65624 40993 ft 495 kts 133°
2026-04-10 04:13 16.81323 85.70915 40993 ft 495 kts 133°
2026-04-10 04:14 16.76658 85.76200 40997 ft 495 kts 133°
2026-04-10 04:14 16.72003 85.81472 41000 ft 495 kts 133°
2026-04-10 04:15 16.67331 85.86757 40997 ft 495 kts 133°
2026-04-10 04:15 16.62674 85.92023 40999 ft 494 kts 133°
2026-04-10 04:16 16.55688 85.99912 40999 ft 493 kts 133°
2026-04-10 04:17 16.51078 86.05114 40999 ft 493 kts 134°
2026-04-10 04:17 16.46394 86.10395 40998 ft 493 kts 134°
2026-04-10 04:18 16.41777 86.15597 41002 ft 493 kts 134°
2026-04-10 04:18 16.37121 86.20839 41002 ft 493 kts 134°
2026-04-10 04:19 16.32459 86.26082 41004 ft 494 kts 134°
2026-04-10 04:19 16.27791 86.31330 41002 ft 493 kts 134°
2026-04-10 04:20 16.23131 86.36564 41002 ft 493 kts 134°
2026-04-10 04:20 16.18470 86.41796 41002 ft 493 kts 134°
2026-04-10 04:21 16.13807 86.47026 41004 ft 493 kts 134°
2026-04-10 04:21 16.09142 86.52254 41003 ft 493 kts 134°
2026-04-10 04:22 16.04481 86.57474 41002 ft 493 kts 134°
2026-04-10 04:22 15.99808 86.62703 41003 ft 493 kts 134°
2026-04-10 04:23 15.95141 86.67922 41003 ft 493 kts 133°
2026-04-10 04:23 15.90478 86.73132 41004 ft 491 kts 133°
2026-04-10 04:24 15.85824 86.78329 41002 ft 491 kts 133°
2026-04-10 04:24 15.81173 86.83519 41003 ft 491 kts 133°
2026-04-10 04:25 15.76521 86.88706 41003 ft 491 kts 133°
2026-04-10 04:25 15.71860 86.93899 41002 ft 491 kts 133°
2026-04-10 04:26 15.67199 86.99089 41004 ft 491 kts 133°
2026-04-10 04:26 15.62551 87.04260 41004 ft 491 kts 133°
2026-04-10 04:27 15.57894 87.09437 41007 ft 490 kts 133°
2026-04-10 04:27 15.53254 87.14592 41006 ft 489 kts 133°
2026-04-10 04:28 15.48605 87.19754 41005 ft 489 kts 133°
2026-04-10 04:28 15.43962 87.24905 41007 ft 489 kts 133°
2026-04-10 04:29 15.39349 87.30019 41008 ft 489 kts 133°
2026-04-10 04:29 15.34673 87.35200 41005 ft 489 kts 133°
2026-04-10 04:30 15.30057 87.40310 41008 ft 489 kts 133°
2026-04-10 04:30 15.25383 87.45491 41012 ft 489 kts 133°
2026-04-10 04:31 15.20869 87.50697 41007 ft 489 kts 131°
2026-04-10 04:31 15.16365 87.55974 41011 ft 489 kts 132°
2026-04-10 04:32 15.11842 87.61238 41009 ft 489 kts 132°
2026-04-10 04:32 15.07312 87.66482 41009 ft 489 kts 132°
2026-04-10 04:33 15.02773 87.71726 41009 ft 489 kts 132°
2026-04-10 04:33 14.98236 87.76964 41011 ft 489 kts 132°
2026-04-10 04:34 14.93700 87.82199 41008 ft 489 kts 132°
2026-04-10 04:34 14.89159 87.87437 41011 ft 488 kts 132°
2026-04-10 04:35 14.84627 87.92660 41007 ft 488 kts 132°
2026-04-10 04:35 14.80104 87.97870 41008 ft 487 kts 132°
2026-04-10 04:36 14.75576 88.03082 41007 ft 487 kts 132°
2026-04-10 04:36 14.71043 88.08296 41005 ft 487 kts 132°
2026-04-10 04:37 14.66517 88.13498 41009 ft 487 kts 132°
2026-04-10 04:37 14.61979 88.18711 41009 ft 487 kts 132°
2026-04-10 04:38 14.57447 88.23913 41023 ft 487 kts 132°
2026-04-10 04:38 14.52914 88.29113 41024 ft 486 kts 131°
2026-04-10 04:39 14.48401 88.34287 41010 ft 486 kts 131°
2026-04-10 04:39 14.43878 88.39469 41009 ft 485 kts 131°
2026-04-10 04:40 14.39390 88.44608 41011 ft 485 kts 132°
2026-04-10 04:40 14.34866 88.49784 41026 ft 485 kts 132°
2026-04-10 04:41 14.30347 88.54951 41009 ft 485 kts 131°
2026-04-10 04:41 14.25826 88.60117 41009 ft 485 kts 131°
2026-04-10 04:42 14.21307 88.65277 41014 ft 485 kts 132°
2026-04-10 04:42 14.16781 88.70442 41017 ft 484 kts 132°
2026-04-10 04:43 14.12272 88.75584 41015 ft 484 kts 132°
2026-04-10 04:43 14.07756 88.80731 41018 ft 484 kts 132°
2026-04-10 04:44 14.03240 88.85875 41016 ft 484 kts 132°
2026-04-10 04:44 13.98724 88.91015 41013 ft 484 kts 132°
2026-04-10 04:45 13.94204 88.96157 41014 ft 484 kts 132°
2026-04-10 04:45 13.89676 89.01305 41015 ft 484 kts 132°
2026-04-10 04:46 13.85153 89.06443 41032 ft 484 kts 132°
2026-04-10 04:46 13.80627 89.11582 41016 ft 484 kts 132°
2026-04-10 04:47 13.76109 89.16709 41017 ft 484 kts 132°
2026-04-10 04:47 13.71579 89.21846 41019 ft 484 kts 132°
2026-04-10 04:48 13.67816 89.26111 41016 ft 484 kts 132°
2026-04-10 04:48 13.63295 89.31232 41014 ft 484 kts 132°
2026-04-10 04:49 13.58760 89.36366 41016 ft 484 kts 132°
2026-04-10 04:49 13.54235 89.41485 41015 ft 484 kts 132°
2026-04-10 04:50 13.49700 89.46612 41031 ft 484 kts 132°
2026-04-10 04:50 13.45175 89.51726 41017 ft 484 kts 132°
2026-04-10 04:51 13.40639 89.56848 41019 ft 484 kts 132°
2026-04-10 04:51 13.36116 89.61953 41017 ft 484 kts 132°
2026-04-10 04:52 13.31586 89.67062 41017 ft 484 kts 132°
2026-04-10 04:52 13.27049 89.72176 41017 ft 484 kts 132°
2026-04-10 04:53 13.22515 89.77284 41017 ft 484 kts 132°
2026-04-10 04:53 13.18010 89.82357 41017 ft 484 kts 132°
2026-04-10 04:54 13.13479 89.87455 41018 ft 484 kts 132°
2026-04-10 04:54 13.08914 89.92589 41019 ft 483 kts 132°
2026-04-10 04:55 13.04415 89.97645 41017 ft 483 kts 132°
2026-04-10 04:55 12.99880 90.02739 41020 ft 484 kts 131°
2026-04-10 04:56 12.95341 90.07834 41018 ft 484 kts 131°
2026-04-10 04:56 12.90794 90.12936 41015 ft 484 kts 131°
2026-04-10 04:57 12.86253 90.18027 41014 ft 484 kts 131°
2026-04-10 04:57 12.81706 90.23123 41015 ft 484 kts 131°
2026-04-10 04:58 12.77155 90.28220 41015 ft 484 kts 131°
2026-04-10 04:58 12.72613 90.33304 41016 ft 484 kts 131°
2026-04-10 04:59 12.68065 90.38392 41021 ft 483 kts 131°
2026-04-10 04:59 12.63529 90.43463 41020 ft 484 kts 131°
2026-04-10 05:00 12.58983 90.48543 41012 ft 484 kts 131°
2026-04-10 05:00 12.54436 90.53621 41019 ft 484 kts 131°
2026-04-10 05:01 12.49880 90.58707 41018 ft 484 kts 131°
2026-04-10 05:01 12.45328 90.63784 41017 ft 484 kts 131°
2026-04-10 05:02 12.40777 90.68859 41015 ft 484 kts 131°
2026-04-10 05:02 12.36232 90.73923 41005 ft 483 kts 131°
2026-04-10 05:03 12.31683 90.78989 41000 ft 483 kts 131°
2026-04-10 05:03 12.27131 90.84056 40999 ft 484 kts 131°
2026-04-10 05:04 12.22579 90.89120 40998 ft 484 kts 131°
2026-04-10 05:04 12.18022 90.94187 40996 ft 484 kts 131°
2026-04-10 05:05 12.13466 90.99249 40995 ft 484 kts 131°
2026-04-10 05:05 12.08908 91.04312 40997 ft 484 kts 131°
2026-04-10 05:06 12.04381 91.09337 41011 ft 484 kts 131°
2026-04-10 05:06 11.99825 91.14392 41017 ft 483 kts 131°
2026-04-10 05:07 11.95269 91.19444 40999 ft 483 kts 131°
2026-04-10 05:07 11.90682 91.24528 41000 ft 484 kts 131°
2026-04-10 05:08 11.86153 91.29545 41000 ft 484 kts 131°
2026-04-10 05:08 11.81419 91.34499 40999 ft 484 kts 135°
2026-04-10 05:09 11.76565 91.39200 40999 ft 484 kts 135°
2026-04-10 05:09 11.69264 91.46337 41000 ft 484 kts 135°
2026-04-10 05:10 11.64431 91.51128 40998 ft 484 kts 135°
2026-04-10 05:10 11.59602 91.55923 40996 ft 485 kts 135°
2026-04-10 05:11 11.54765 91.60721 40996 ft 485 kts 135°
2026-04-10 05:11 11.49927 91.65515 40996 ft 485 kts 135°
2026-04-10 05:12 11.45085 91.70311 41000 ft 485 kts 135°
2026-04-10 05:12 11.40239 91.75107 40999 ft 485 kts 135°
2026-04-10 05:13 11.35392 91.79904 40995 ft 485 kts 135°
2026-04-10 05:13 11.30386 91.84523 40995 ft 486 kts 138°
2026-04-10 05:14 11.25215 91.88956 40998 ft 486 kts 139°
2026-04-10 05:14 11.20058 91.93416 40997 ft 487 kts 138°
2026-04-10 05:15 11.14921 91.97922 40995 ft 487 kts 138°
2026-04-10 05:15 11.09797 92.02437 40993 ft 487 kts 138°
2026-04-10 05:16 11.04665 92.06959 40991 ft 487 kts 138°
2026-04-10 05:16 10.99537 92.11471 40992 ft 487 kts 138°
2026-04-10 05:17 10.94441 92.15952 40992 ft 487 kts 138°
2026-04-10 05:17 10.89281 92.20486 40993 ft 487 kts 137°
2026-04-10 05:18 10.84149 92.24995 40992 ft 487 kts 137°
2026-04-10 05:18 10.79061 92.29463 40988 ft 487 kts 138°
2026-04-10 05:19 10.73926 92.33969 40990 ft 487 kts 138°
2026-04-10 05:19 10.68799 92.38467 40987 ft 487 kts 138°
2026-04-10 05:20 10.63662 92.42971 40988 ft 487 kts 138°
2026-04-10 05:20 10.58537 92.47463 40987 ft 487 kts 138°
2026-04-10 05:21 10.53406 92.51957 40990 ft 486 kts 137°
2026-04-10 05:21 10.48295 92.56432 40989 ft 484 kts 137°
2026-04-10 05:22 10.43199 92.60893 40991 ft 484 kts 137°
2026-04-10 05:22 10.38096 92.65358 40990 ft 484 kts 137°
2026-04-10 05:23 10.32996 92.69818 40989 ft 483 kts 137°
2026-04-10 05:23 10.27923 92.74252 40987 ft 481 kts 137°
2026-04-10 05:24 10.22856 92.78679 40990 ft 481 kts 137°
2026-04-10 05:24 10.17780 92.83111 40989 ft 481 kts 137°
2026-04-10 05:25 10.12715 92.87533 40987 ft 480 kts 137°
2026-04-10 05:25 10.07646 92.91956 40991 ft 480 kts 137°
2026-04-10 05:26 10.02581 92.96374 40985 ft 480 kts 137°
2026-04-10 05:26 9.97510 93.00794 40985 ft 481 kts 137°
2026-04-10 05:27 9.92564 93.05105 40983 ft 480 kts 137°
2026-04-10 05:27 9.87484 93.09530 40987 ft 482 kts 137°
2026-04-10 05:28 9.82434 93.13927 40986 ft 482 kts 137°
2026-04-10 05:28 9.77349 93.18352 40985 ft 481 kts 137°
2026-04-10 05:29 9.72280 93.22762 40981 ft 480 kts 137°
2026-04-10 05:29 9.67217 93.27164 40983 ft 480 kts 137°
2026-04-10 05:30 9.62153 93.31566 40984 ft 480 kts 137°
2026-04-10 05:30 9.57079 93.35976 40986 ft 480 kts 137°
2026-04-10 05:31 9.52017 93.40372 40986 ft 480 kts 137°
2026-04-10 05:31 9.46943 93.44777 40986 ft 480 kts 137°
2026-04-10 05:32 9.41881 93.49170 40985 ft 479 kts 137°
2026-04-10 05:32 9.36828 93.53553 40983 ft 478 kts 137°
2026-04-10 05:33 9.31775 93.57935 40982 ft 478 kts 137°
2026-04-10 05:33 9.26726 93.62312 40983 ft 478 kts 137°
2026-04-10 05:34 9.21670 93.66693 40982 ft 478 kts 137°
2026-04-10 05:34 9.16619 93.71068 40983 ft 478 kts 137°
2026-04-10 05:35 9.12417 93.74706 40980 ft 478 kts 137°
2026-04-10 05:35 9.07369 93.79075 40980 ft 478 kts 137°
2026-04-10 05:36 9.02317 93.83444 40979 ft 477 kts 137°
2026-04-10 05:36 8.97268 93.87811 40979 ft 477 kts 137°
2026-04-10 05:37 8.92224 93.92172 40980 ft 477 kts 137°
2026-04-10 05:37 8.87186 93.96527 40979 ft 477 kts 137°
2026-04-10 05:38 8.82621 94.01340 40978 ft 472 kts 123°
2026-04-10 05:38 8.79011 94.06878 40976 ft 472 kts 120°
2026-04-10 05:39 8.75541 94.12510 40977 ft 472 kts 120°
2026-04-10 05:39 8.72084 94.18140 40977 ft 472 kts 120°
2026-04-10 05:40 8.68604 94.23770 40979 ft 472 kts 120°
2026-04-10 05:40 8.65120 94.29386 40977 ft 472 kts 120°
2026-04-10 05:41 8.61636 94.34997 40977 ft 472 kts 120°
2026-04-10 05:41 8.58148 94.40613 40975 ft 472 kts 120°
2026-04-10 05:42 8.54846 94.46283 40974 ft 471 kts 116°
2026-04-10 05:42 8.51876 94.52174 40974 ft 470 kts 115°
2026-04-10 05:43 8.48889 94.58097 40971 ft 470 kts 116°
2026-04-10 05:43 8.45883 94.63909 40971 ft 470 kts 116°
2026-04-10 05:44 8.42826 94.69749 40972 ft 470 kts 116°
2026-04-10 05:44 8.39770 94.75580 40972 ft 470 kts 116°
2026-04-10 05:45 8.36714 94.81413 40971 ft 470 kts 116°
2026-04-10 05:45 8.33655 94.87255 40972 ft 470 kts 116°
2026-04-10 05:46 8.30598 94.93089 40971 ft 470 kts 116°
2026-04-10 05:46 8.27553 94.98900 40972 ft 467 kts 116°
2026-04-10 05:47 8.24517 95.04688 40973 ft 466 kts 116°
2026-04-10 05:47 8.21481 95.10476 40971 ft 466 kts 116°
2026-04-10 05:48 8.18448 95.16256 40974 ft 466 kts 116°
2026-04-10 05:48 8.15412 95.22036 40968 ft 466 kts 116°
2026-04-10 05:49 8.12370 95.27829 40965 ft 466 kts 117°
2026-04-10 05:49 8.09334 95.33606 40961 ft 466 kts 117°
2026-04-10 05:50 8.06289 95.39399 40964 ft 468 kts 117°
2026-04-10 05:50 8.03233 95.45209 40965 ft 469 kts 117°
2026-04-10 05:51 8.00176 95.51020 40966 ft 469 kts 117°
2026-04-10 05:51 7.97118 95.56818 40966 ft 469 kts 117°
2026-04-10 05:52 7.94047 95.62621 40964 ft 469 kts 117°
2026-04-10 05:52 7.90979 95.68420 40964 ft 469 kts 117°
2026-04-10 05:53 7.87930 95.74182 40963 ft 469 kts 117°
2026-04-10 05:53 7.84857 95.79990 40964 ft 470 kts 117°
2026-04-10 05:54 7.81779 95.85805 40963 ft 470 kts 117°
2026-04-10 05:54 7.78700 95.91618 40963 ft 470 kts 117°
2026-04-10 05:55 7.75621 95.97430 40964 ft 470 kts 117°
2026-04-10 05:55 7.72540 96.03243 40964 ft 470 kts 117°
2026-04-10 05:56 7.69463 96.09045 40961 ft 470 kts 117°
2026-04-10 05:56 7.66381 96.14857 40964 ft 470 kts 117°
2026-04-10 05:57 7.63298 96.20666 40964 ft 470 kts 117°
2026-04-10 05:57 7.60214 96.26475 40963 ft 470 kts 117°
2026-04-10 05:58 7.57134 96.32275 40961 ft 470 kts 117°
2026-04-10 05:58 7.54053 96.38075 40960 ft 469 kts 117°
2026-04-10 05:59 7.50968 96.43880 40960 ft 469 kts 117°
2026-04-10 05:59 7.47891 96.49667 40961 ft 469 kts 117°
2026-04-10 06:00 7.44810 96.55459 40960 ft 469 kts 117°
2026-04-10 06:00 7.41732 96.61244 40961 ft 468 kts 117°
2026-04-10 06:01 7.38658 96.67019 40960 ft 469 kts 117°
2026-04-10 06:01 7.35576 96.72807 40958 ft 469 kts 117°
2026-04-10 06:02 7.32491 96.78597 40953 ft 469 kts 117°
2026-04-10 06:02 7.29410 96.84379 40951 ft 469 kts 117°
2026-04-10 06:03 7.26965 96.90453 40958 ft 468 kts 105°
2026-04-10 06:03 7.25324 96.96805 40958 ft 469 kts 103°
2026-04-10 06:04 7.23782 97.03190 40960 ft 469 kts 103°
2026-04-10 06:04 7.22239 97.09578 40961 ft 469 kts 103°
2026-04-10 06:05 7.20683 97.15956 40955 ft 469 kts 103°
2026-04-10 06:05 7.19117 97.22341 40954 ft 469 kts 103°
2026-04-10 06:06 7.16780 97.31859 40953 ft 469 kts 103°
2026-04-10 06:07 7.15213 97.38242 40951 ft 469 kts 103°
2026-04-10 06:07 7.13648 97.44612 40953 ft 468 kts 103°
2026-04-10 06:08 7.12085 97.50966 40955 ft 468 kts 103°
2026-04-10 06:08 7.10520 97.57330 40951 ft 468 kts 103°
2026-04-10 06:09 7.08952 97.63699 40952 ft 469 kts 103°
2026-04-10 06:09 7.07380 97.70079 40957 ft 470 kts 103°
2026-04-10 06:10 7.05804 97.76474 40950 ft 470 kts 103°
2026-04-10 06:10 7.04229 97.82861 40950 ft 470 kts 103°
2026-04-10 06:11 7.02656 97.89237 40951 ft 470 kts 103°
2026-04-10 06:11 7.01079 97.95623 40943 ft 470 kts 104°
2026-04-10 06:12 6.99258 98.01945 40949 ft 471 kts 109°
2026-04-10 06:12 6.97023 98.08149 40948 ft 472 kts 110°
2026-04-10 06:13 6.94733 98.14346 40946 ft 472 kts 110°
2026-04-10 06:13 6.92444 98.20535 40946 ft 472 kts 110°
2026-04-10 06:14 6.90163 98.26718 40945 ft 472 kts 110°
2026-04-10 06:14 6.87878 98.32920 40945 ft 472 kts 110°
2026-04-10 06:15 6.85598 98.39108 40946 ft 473 kts 110°
2026-04-10 06:15 6.83308 98.45321 40948 ft 473 kts 110°
2026-04-10 06:16 6.81018 98.51527 40941 ft 473 kts 110°
2026-04-10 06:16 6.78727 98.57736 40943 ft 473 kts 110°
2026-04-10 06:17 6.76434 98.63946 40944 ft 473 kts 110°
2026-04-10 06:17 6.74144 98.70145 40942 ft 472 kts 110°
2026-04-10 06:18 6.71853 98.76342 40939 ft 473 kts 110°
2026-04-10 06:18 6.69561 98.82542 40936 ft 474 kts 110°
2026-04-10 06:19 6.67263 98.88755 40937 ft 474 kts 110°
2026-04-10 06:19 6.64963 98.94970 40935 ft 474 kts 110°
2026-04-10 06:20 6.62665 99.01179 40942 ft 474 kts 110°
2026-04-10 06:20 6.60757 99.06333 40938 ft 474 kts 110°
2026-04-10 06:21 6.58453 99.12550 40935 ft 475 kts 110°
2026-04-10 06:21 6.56147 99.18770 40938 ft 476 kts 110°
2026-04-10 06:22 6.53835 99.25006 40933 ft 476 kts 110°
2026-04-10 06:22 6.51524 99.31238 40929 ft 476 kts 110°
2026-04-10 06:23 6.49210 99.37475 40936 ft 476 kts 110°
2026-04-10 06:23 6.46892 99.43719 40934 ft 476 kts 110°
2026-04-10 06:24 6.44575 99.49955 40939 ft 476 kts 110°
2026-04-10 06:24 6.42258 99.56189 40939 ft 477 kts 110°
2026-04-10 06:25 6.39935 99.62437 40929 ft 477 kts 110°
2026-04-10 06:25 6.37612 99.68685 40934 ft 477 kts 110°
2026-04-10 06:26 6.34733 99.74672 40941 ft 478 kts 123°
2026-04-10 06:26 6.30412 99.79756 40925 ft 478 kts 133°
2026-04-10 06:27 6.25780 99.84501 40922 ft 479 kts 134°
2026-04-10 06:27 6.21046 99.89287 40921 ft 480 kts 134°
2026-04-10 06:28 6.16355 99.94060 40921 ft 480 kts 133°
2026-04-10 06:28 6.11704 99.98812 40924 ft 480 kts 133°
2026-04-10 06:29 6.07028 100.03603 40925 ft 480 kts 133°
2026-04-10 06:29 6.02349 100.08388 40919 ft 480 kts 133°
2026-04-10 06:30 5.97662 100.13171 40927 ft 480 kts 133°
2026-04-10 06:30 5.92981 100.17949 40929 ft 480 kts 133°
2026-04-10 06:31 5.88297 100.22732 40925 ft 480 kts 133°
2026-04-10 06:31 5.83606 100.27522 40925 ft 481 kts 133°
2026-04-10 06:32 5.78913 100.32311 40927 ft 481 kts 133°
2026-04-10 06:32 5.74221 100.37099 40929 ft 481 kts 133°
2026-04-10 06:33 5.69536 100.41879 40929 ft 481 kts 133°
2026-04-10 06:33 5.64839 100.46669 40932 ft 481 kts 133°
2026-04-10 06:34 5.60155 100.51446 40914 ft 480 kts 133°
2026-04-10 06:34 5.55466 100.56225 40919 ft 479 kts 133°
2026-04-10 06:35 5.50825 100.60958 40927 ft 480 kts 133°
2026-04-10 06:35 5.46124 100.65747 40931 ft 481 kts 133°
2026-04-10 06:36 5.41414 100.70497 40930 ft 481 kts 136°
2026-04-10 06:36 5.35907 100.74298 40957 ft 483 kts 154°
2026-04-10 06:37 5.29466 100.76235 40952 ft 485 kts 168°
2026-04-10 06:37 5.22797 100.77326 40946 ft 487 kts 170°
2026-04-10 06:38 5.16090 100.78333 40954 ft 486 kts 170°
2026-04-10 06:38 5.09401 100.79362 40956 ft 486 kts 170°
2026-04-10 06:39 5.02714 100.80414 40954 ft 486 kts 170°
2026-04-10 06:39 4.96036 100.81472 40953 ft 486 kts 170°
2026-04-10 06:40 4.89347 100.82537 40946 ft 486 kts 170°
2026-04-10 06:40 4.82662 100.83589 40947 ft 486 kts 169°
2026-04-10 06:41 4.75991 100.84640 40943 ft 485 kts 169°
2026-04-10 06:41 4.69319 100.85693 40942 ft 485 kts 169°
2026-04-10 06:42 4.62645 100.86746 40934 ft 485 kts 169°
2026-04-10 06:42 4.55984 100.87798 40945 ft 485 kts 169°
2026-04-10 06:43 4.49319 100.88858 40943 ft 485 kts 168°
2026-04-10 06:43 4.42933 100.90874 40942 ft 479 kts 154°
2026-04-10 06:44 4.36920 100.93709 40943 ft 478 kts 152°
2026-04-10 06:44 4.30934 100.96653 40935 ft 478 kts 152°
2026-04-10 06:45 4.24956 100.99589 40937 ft 479 kts 152°
2026-04-10 06:45 4.18972 101.02510 40938 ft 478 kts 152°
2026-04-10 06:46 4.12992 101.05421 40943 ft 478 kts 152°
2026-04-10 06:46 4.06999 101.08337 40943 ft 478 kts 152°
2026-04-10 06:47 4.01010 101.11252 40932 ft 478 kts 152°
2026-04-10 06:47 3.95022 101.14165 40932 ft 479 kts 152°
2026-04-10 06:48 3.89088 101.17052 40932 ft 479 kts 152°
2026-04-10 06:48 3.83082 101.19974 40923 ft 479 kts 152°
2026-04-10 06:49 3.77100 101.22884 40930 ft 479 kts 152°
2026-04-10 06:49 3.71158 101.25887 40923 ft 478 kts 150°
2026-04-10 06:50 3.65281 101.28991 40925 ft 478 kts 150°
2026-04-10 06:50 3.59401 101.32086 40918 ft 477 kts 150°
2026-04-10 06:51 3.53521 101.35154 40920 ft 476 kts 150°
2026-04-10 06:51 3.47643 101.38212 40924 ft 476 kts 150°
2026-04-10 06:52 3.41766 101.41268 40923 ft 476 kts 150°
2026-04-10 06:52 3.35879 101.44330 40924 ft 476 kts 150°
2026-04-10 06:53 3.29985 101.47372 40932 ft 477 kts 152°
2026-04-10 06:53 3.23987 101.50142 40932 ft 478 kts 154°
2026-04-10 06:54 3.17918 101.52857 40941 ft 478 kts 154°
2026-04-10 06:54 3.11815 101.55635 40940 ft 478 kts 153°
2026-04-10 06:55 3.05812 101.58401 40941 ft 478 kts 153°
2026-04-10 06:55 2.99778 101.61189 40927 ft 478 kts 153°
2026-04-10 06:56 2.93729 101.63982 40926 ft 480 kts 154°
2026-04-10 06:56 2.87672 101.66777 40919 ft 480 kts 154°
2026-04-10 06:57 2.81594 101.69580 40899 ft 480 kts 153°
2026-04-10 06:57 2.75526 101.72379 40884 ft 480 kts 153°
2026-04-10 06:58 2.69462 101.75196 40884 ft 480 kts 153°
2026-04-10 06:58 2.63463 101.78123 40881 ft 480 kts 152°
2026-04-10 06:59 2.57489 101.81119 40888 ft 480 kts 149°
2026-04-10 06:59 2.52222 101.85174 40898 ft 478 kts 132°
2026-04-10 07:00 2.48041 101.90333 40906 ft 478 kts 126°
2026-04-10 07:00 2.44059 101.95659 40902 ft 478 kts 126°
2026-04-10 07:01 2.40111 102.00962 40898 ft 478 kts 126°
2026-04-10 07:01 2.36119 102.06283 40901 ft 478 kts 126°
2026-04-10 07:02 2.32121 102.11590 40904 ft 478 kts 126°
2026-04-10 07:02 2.28128 102.16887 40902 ft 478 kts 126°
2026-04-10 07:03 2.24131 102.22191 40907 ft 477 kts 126°
2026-04-10 07:03 2.20117 102.27519 40904 ft 481 kts 126°
2026-04-10 07:04 2.16078 102.32878 40909 ft 483 kts 126°
2026-04-10 07:04 2.12034 102.38243 40909 ft 483 kts 126°
2026-04-10 07:05 2.07985 102.43615 40907 ft 482 kts 126°
2026-04-10 07:05 2.03952 102.48964 40907 ft 481 kts 126°
2026-04-10 07:06 1.99941 102.54295 40911 ft 480 kts 126°
2026-04-10 07:06 1.95934 102.59615 40495 ft 475 kts 126°
2026-04-10 07:06 1.93945 102.62253 39745 ft 477 kts 126°
2026-04-10 07:07 1.91941 102.64911 38991 ft 480 kts 126°
2026-04-10 07:07 1.89935 102.67572 38174 ft 482 kts 126°
2026-04-10 07:07 1.87907 102.70265 37323 ft 484 kts 126°
2026-04-10 07:07 1.85881 102.72955 36528 ft 486 kts 126°
2026-04-10 07:08 1.83844 102.75658 35839 ft 485 kts 126°
2026-04-10 07:08 1.81818 102.78347 35068 ft 485 kts 126°
2026-04-10 07:08 1.79787 102.81044 34243 ft 488 kts 126°
2026-04-10 07:09 1.76386 102.85557 32826 ft 489 kts 126°
2026-04-10 07:09 1.74358 102.88291 31853 ft 491 kts 123°
2026-04-10 07:09 1.72611 102.91231 30897 ft 493 kts 117°
2026-04-10 07:09 1.70977 102.94260 29937 ft 496 kts 117°
2026-04-10 07:10 1.69346 102.97300 28874 ft 497 kts 117°
2026-04-10 07:10 1.67722 103.00334 28016 ft 494 kts 117°
2026-04-10 07:10 1.66104 103.03360 27224 ft 491 kts 117°
2026-04-10 07:10 1.64505 103.06357 26471 ft 486 kts 117°
2026-04-10 07:11 1.62920 103.09328 25742 ft 482 kts 117°
2026-04-10 07:11 1.61355 103.12261 25041 ft 477 kts 117°
2026-04-10 07:11 1.59802 103.15183 24346 ft 473 kts 117°
2026-04-10 07:11 1.58259 103.18070 23650 ft 469 kts 117°
2026-04-10 07:12 1.56733 103.20925 22878 ft 465 kts 117°
2026-04-10 07:12 1.55219 103.23757 22114 ft 459 kts 117°
2026-04-10 07:12 1.53719 103.26566 21356 ft 454 kts 117°
2026-04-10 07:12 1.52240 103.29334 20606 ft 450 kts 117°
2026-04-10 07:13 1.50778 103.32073 19850 ft 446 kts 117°
2026-04-10 07:13 1.49327 103.34791 19173 ft 440 kts 117°
2026-04-10 07:13 1.47900 103.37463 18406 ft 428 kts 117°
2026-04-10 07:13 1.46655 103.40155 17220 ft 428 kts 108°
2026-04-10 07:14 1.46149 103.43058 16354 ft 425 kts 90°
2026-04-10 07:14 1.46405 103.45999 15530 ft 422 kts 81°
2026-04-10 07:14 1.46828 103.48872 14935 ft 415 kts 81°
2026-04-10 07:14 1.47233 103.51652 14447 ft 389 kts 81°
2026-04-10 07:15 1.47604 103.54255 13912 ft 368 kts 82°
2026-04-10 07:15 1.47953 103.56715 13373 ft 348 kts 82°
2026-04-10 07:15 1.48281 103.59041 12866 ft 330 kts 82°
2026-04-10 07:15 1.48591 103.61249 12436 ft 312 kts 81°
2026-04-10 07:16 1.48886 103.63346 12060 ft 295 kts 82°
2026-04-10 07:16 1.49165 103.65337 11552 ft 286 kts 81°
2026-04-10 07:16 1.49439 103.67287 10966 ft 281 kts 82°
2026-04-10 07:16 1.49707 103.69202 10410 ft 276 kts 82°
2026-04-10 07:17 1.49974 103.71107 9987 ft 276 kts 82°
2026-04-10 07:17 1.50199 103.72998 9602 ft 275 kts 85°
2026-04-10 07:17 1.50339 103.74934 8923 ft 285 kts 86°
2026-04-10 07:17 1.50474 103.76907 8184 ft 285 kts 85°
2026-04-10 07:18 1.50619 103.78885 7503 ft 281 kts 85°
2026-04-10 07:18 1.50763 103.80770 7016 ft 272 kts 85°
2026-04-10 07:18 1.51036 103.82622 6517 ft 263 kts 73°
2026-04-10 07:18 1.51794 103.84235 5955 ft 258 kts 57°
2026-04-10 07:19 1.52782 103.85743 5341 ft 255 kts 55°
2026-04-10 07:19 1.53749 103.87204 4752 ft 254 kts 56°
2026-04-10 07:19 1.54772 103.88626 4226 ft 249 kts 51°
2026-04-10 07:19 1.55813 103.89940 3988 ft 232 kts 50°
2026-04-10 07:20 1.56774 103.91129 3948 ft 207 kts 50°
2026-04-10 07:20 1.57648 103.92210 3985 ft 198 kts 50°
2026-04-10 07:20 1.58461 103.93298 3770 ft 193 kts 58°
2026-04-10 07:20 1.58759 103.94588 3259 ft 195 kts 95°
2026-04-10 07:21 1.58461 103.95894 2862 ft 190 kts 108°
2026-04-10 07:21 1.58046 103.97100 2633 ft 178 kts 110°
2026-04-10 07:21 1.57638 103.98224 2472 ft 166 kts 110°
2026-04-10 07:21 1.57238 103.99308 2469 ft 167 kts 110°
2026-04-10 07:22 1.56836 104.00395 2468 ft 165 kts 110°
2026-04-10 07:22 1.56455 104.01423 2451 ft 150 kts 110°
2026-04-10 07:22 1.56109 104.02352 2434 ft 136 kts 110°
2026-04-10 07:22 1.55781 104.03236 2472 ft 136 kts 110°
2026-04-10 07:23 1.55425 104.04122 2478 ft 140 kts 116°
2026-04-10 07:23 1.54695 104.04764 2485 ft 144 kts 158°
2026-04-10 07:23 1.53730 104.05010 2477 ft 144 kts 174°
2026-04-10 07:23 1.52741 104.04917 2471 ft 143 kts 194°
2026-04-10 07:24 1.51787 104.04631 2475 ft 142 kts 197°
2026-04-10 07:24 1.50853 104.04329 2468 ft 140 kts 198°
2026-04-10 07:24 1.49933 104.04025 2470 ft 140 kts 198°
2026-04-10 07:24 1.49008 104.03717 2476 ft 140 kts 198°
2026-04-10 07:25 1.48107 104.03364 2380 ft 138 kts 202°
2026-04-10 07:25 1.47204 104.03035 2070 ft 140 kts 198°
2026-04-10 07:25 1.46286 104.02698 1789 ft 140 kts 202°
2026-04-10 07:25 1.45403 104.02297 1554 ft 139 kts 205°
2026-04-10 07:26 1.44537 104.01890 1359 ft 137 kts 204°
2026-04-10 07:26 1.43670 104.01474 1228 ft 140 kts 205°
2026-04-10 07:26 1.42772 104.01058 1088 ft 143 kts 203°
2026-04-10 07:26 1.41859 104.00670 956 ft 143 kts 201°
2026-04-10 07:27 1.40945 104.00286 805 ft 143 kts 200°
2026-04-10 07:27 1.40033 103.99905 581 ft 142 kts 200°
2026-04-10 07:27 1.39135 103.99532 364 ft 138 kts 201°
2026-04-10 07:27 1.38256 103.99157 192 ft 138 kts 201°
2026-04-10 07:28 1.37360 103.98784 54 ft 140 kts 201°
2026-04-10 07:28 1.36531 103.98438 38 ft 125 kts 204°
2026-04-10 07:28 1.35896 103.98166 35 ft 71 kts 203°
2026-04-10 07:28 1.35481 103.97993 38 ft 55 kts 203°
2026-04-10 07:29 1.35190 103.97870 38 ft 36 kts 203°
2026-04-10 07:29 1.35061 103.97822 37 ft 16 kts 188°
2026-04-10 07:29 1.34992 103.97875 36 ft 14 kts 122°
2026-04-10 07:29 1.34978 103.97952 34 ft 12 kts 68°
2026-04-10 07:30 1.35027 103.97995 33 ft 0 kts 24°
2026-04-10 07:31 1.35032 103.97997 33 ft 7 kts 23°
2026-04-10 07:32 1.35182 103.98060 33 ft 21 kts 22°
2026-04-10 07:32 1.35310 103.98113 33 ft 22 kts 22°
2026-04-10 07:32 1.35467 103.98180 33 ft 27 kts 22°
2026-04-10 07:32 1.35635 103.98251 33 ft 28 kts 23°
2026-04-10 07:33 1.35827 103.98331 33 ft 32 kts 22°
2026-04-10 07:33 1.36040 103.98420 33 ft 35 kts 22°
2026-04-10 07:33 1.36231 103.98502 33 ft 31 kts 23°
2026-04-10 07:33 1.36437 103.98590 33 ft 31 kts 22°
2026-04-10 07:34 1.36613 103.98663 33 ft 20 kts 22°
2026-04-10 07:34 1.36752 103.98722 32 ft 22 kts 23°
2026-04-10 07:34 1.36824 103.98775 32 ft 13 kts 65°
2026-04-10 07:34 1.36807 103.98873 31 ft 16 kts 112°
2026-04-10 07:35 1.36760 103.98985 31 ft 19 kts 113°
2026-04-10 07:35 1.36705 103.99113 31 ft 22 kts 113°
2026-04-10 07:35 1.36642 103.99260 31 ft 23 kts 113°
2026-04-10 07:35 1.36588 103.99389 31 ft 15 kts 112°
2026-04-10 07:36 1.36544 103.99491 31 ft 18 kts 113°
2026-04-10 07:36 1.36501 103.99579 31 ft 9 kts 128°
2026-04-10 07:36 1.36431 103.99597 31 ft 12 kts 191°
2026-04-10 07:36 1.36359 103.99544 31 ft 14 kts 233°
2026-04-10 07:37 1.36290 103.99456 31 ft 18 kts 225°
2026-04-10 07:37 1.36195 103.99399 31 ft 9 kts 203°
2026-04-10 07:37 1.36125 103.99369 31 ft 13 kts 203°
2026-04-10 07:37 1.36034 103.99331 31 ft 15 kts 203°
2026-04-10 07:38 1.36001 103.99317 31 ft 1 kts 205°
2026-04-10 07:38 1.35978 103.99295 31 ft 7 kts 239°
2026-04-10 07:38 1.35980 103.99260 31 ft 3 kts 283°
2026-04-10 07:38 1.35988 103.99235 31 ft 5 kts 288°
2026-04-10 07:39 1.35991 103.99225 31 ft 0 kts 288°